MENDUMS POND: From 11/25/2018 00:00 to 01/26/2019 00:00

Date LAKE ELEVATION [FT] PRECIPITATION INCREMENT [IN] WATER TEMPERATURE [F] PRECIPITATION TOTAL [IN] AIR TEMPERATURE [F] RESERVOIR RELEASE [CFS]
01/24/2019 04:00 -- -- -- -- -- 13.0
01/24/2019 03:00 218.74 0.04 39.9 -- 33.2 13.0
01/24/2019 02:00 218.74 0.05 39.9 -- 34.7 13.0
01/24/2019 01:00 218.74 0.03 39.9 -- 33.8 13.0
01/24/2019 00:00 218.73 0.02 39.8 -- 35.7 13.0
01/23/2019 23:00 218.73 0.02 39.9 -- 36.1 13.0
01/23/2019 22:00 218.74 0.01 39.9 -- 37.8 13.0
01/23/2019 21:00 218.75 0.00 39.9 -- 38.2 13.0
01/23/2019 20:00 218.73 0.01 39.9 -- 37.5 13.0
01/23/2019 19:00 218.75 0.01 39.9 -- 37.2 13.0
01/23/2019 18:00 218.73 0.00 39.8 -- 36.9 13.0
01/23/2019 17:00 218.75 0.00 39.9 -- 37.5 13.0
01/23/2019 16:00 218.74 0.00 39.8 -- 37.4 13.0
01/23/2019 15:00 218.74 0.00 39.8 -- 39.4 13.0
01/23/2019 14:00 218.75 0.00 39.8 -- 36.7 13.0
01/23/2019 13:00 218.75 0.00 39.8 -- 33.4 13.0
01/23/2019 12:00 218.76 0.00 39.8 -- 30.1 13.0
01/23/2019 11:00 218.77 0.00 39.8 -- 26.6 13.0
01/23/2019 10:00 218.75 0.00 39.8 -- 24.6 13.0
01/23/2019 09:00 218.75 0.00 39.8 -- 20.8 13.0
01/23/2019 08:00 218.76 0.00 39.8 -- 16.1 13.0
01/23/2019 07:00 218.77 0.00 39.9 -- 13.9 13.0
01/23/2019 06:00 218.76 0.00 39.8 -- 12.4 13.0
01/23/2019 05:00 218.76 0.00 39.8 -- 10.3 13.0
01/23/2019 04:00 218.76 0.00 39.8 -- 9.3 13.0
01/23/2019 03:00 218.77 0.00 39.9 -- 9.8 13.0
01/23/2019 02:00 218.77 0.00 39.9 -- 10.3 13.0
01/23/2019 01:00 218.76 0.00 39.9 -- 11.7 13.0
01/23/2019 00:00 218.77 0.00 39.8 0.07 14.2 13.0
01/22/2019 23:00 218.77 0.00 39.8 -- 14.1 13.0
01/22/2019 22:00 218.77 0.00 39.8 -- 16.7 13.0
01/22/2019 21:00 218.77 0.00 39.9 -- 18.4 13.0
01/22/2019 20:00 218.78 0.00 39.9 -- 18.9 13.0
01/22/2019 19:00 218.79 0.00 39.9 -- 19.3 13.3
01/22/2019 18:00 218.78 0.00 39.9 -- 19.0 13.3
01/22/2019 17:00 218.79 0.00 39.8 -- 19.1 13.8
01/22/2019 16:00 218.77 0.00 39.8 -- 21.4 13.3
01/22/2019 15:00 218.79 0.00 39.8 -- 22.1 13.8
01/22/2019 14:00 218.79 0.00 39.8 -- 24.0 13.8
01/22/2019 13:00 218.80 0.00 39.8 -- 23.0 13.5
01/22/2019 12:00 218.79 0.00 39.8 -- 20.8 14.0
01/22/2019 11:00 218.77 0.00 39.8 -- 17.6 13.8
01/22/2019 10:00 218.80 0.00 39.8 -- 11.1 13.8
01/22/2019 09:00 218.79 0.00 39.8 -- 5.8 14.0
01/22/2019 08:00 218.78 0.00 39.8 -- 3.1 13.8
01/22/2019 07:00 218.80 0.00 39.8 -- 2.8 14.0
01/22/2019 06:00 218.81 0.00 39.8 -- 2.5 13.8
01/22/2019 05:00 218.81 0.00 39.8 -- 2.6 14.0
01/22/2019 04:00 218.81 0.00 39.8 -- 2.2 14.0
01/22/2019 03:00 218.81 0.00 39.8 -- 2.7 14.0
01/22/2019 02:00 218.82 0.00 39.8 -- 2.8 14.0
01/22/2019 01:00 218.80 0.00 39.8 -- 2.9 14.0
01/22/2019 00:00 218.79 0.00 39.8 0.00 3.1 13.8
01/21/2019 23:00 218.82 0.00 39.8 -- 3.3 14.0
01/21/2019 22:00 218.82 0.00 39.8 -- 2.7 14.0
01/21/2019 21:00 218.81 0.00 39.8 -- 1.6 13.8
01/21/2019 20:00 218.83 0.00 39.8 -- 1.1 14.0
01/21/2019 19:00 218.77 0.00 39.7 -- 0.6 13.8
01/21/2019 18:00 218.80 0.00 39.7 -- 0.2 14.0
01/21/2019 17:00 218.83 0.00 39.8 -- 0.1 14.5
01/21/2019 16:00 218.80 0.00 39.8 -- 0.6 14.0
01/21/2019 15:00 218.83 0.00 39.8 -- 1.3 14.0
01/21/2019 14:00 218.83 0.00 39.8 -- 2.2 14.0
01/21/2019 13:00 218.86 0.00 39.8 -- 2.6 14.3
01/21/2019 12:00 218.83 0.00 39.8 -- 1.3 14.0
01/21/2019 11:00 218.81 0.00 39.8 -- 0.6 14.3
01/21/2019 10:00 218.85 0.00 39.8 -- 0.4 14.3
01/21/2019 09:00 218.85 0.00 39.8 -- -0.2 14.3
01/21/2019 08:00 218.84 0.00 39.7 -- 0.4 14.5
01/21/2019 07:00 218.83 0.00 39.7 -- 0.8 14.3
01/21/2019 06:00 218.84 0.00 39.8 -- 0.6 14.5
01/21/2019 05:00 218.83 0.00 39.8 -- 0.4 14.5
01/21/2019 04:00 218.85 0.00 39.8 -- 0.7 14.8
01/21/2019 03:00 218.83 0.00 39.8 -- 0.9 14.5
01/21/2019 02:00 218.87 0.00 39.8 -- 1.6 14.8
01/21/2019 01:00 218.83 0.00 39.8 -- 1.7 14.3
01/21/2019 00:00 218.87 0.00 39.7 0.00 3.3 14.8
01/20/2019 23:00 218.88 0.00 39.7 -- 4.5 14.5
01/20/2019 22:00 218.88 0.00 39.7 -- 6.5 15.0
01/20/2019 21:00 218.85 0.00 39.7 -- 10.3 14.5
01/20/2019 20:00 218.87 0.00 39.8 -- 15.4 15.0
01/20/2019 19:00 218.85 0.00 39.8 -- 20.8 15.0
01/20/2019 18:00 218.85 0.00 39.8 -- 20.8 15.0
01/20/2019 17:00 218.87 0.00 39.8 -- 19.4 15.0
01/20/2019 16:00 218.86 0.00 39.8 -- 17.1 15.0
01/20/2019 15:00 218.84 0.00 39.8 -- 15.4 14.8
01/20/2019 14:00 218.87 0.00 39.8 -- 14.1 15.0
01/20/2019 13:00 218.85 0.00 39.8 -- 12.9 14.8
01/20/2019 12:00 218.84 0.00 39.8 -- 12.7 14.5
01/20/2019 11:00 218.87 0.00 39.7 -- 12.6 14.8
01/20/2019 10:00 218.85 0.00 39.7 -- 12.1 14.5
01/20/2019 09:00 218.86 0.00 39.7 -- 10.1 15.0
01/20/2019 08:00 218.84 0.00 39.7 -- 10.4 14.0
01/20/2019 07:00 218.85 0.00 39.7 -- 11.3 14.5
01/20/2019 06:00 218.83 0.00 39.7 -- 10.8 14.3
01/20/2019 05:00 218.83 0.00 39.7 -- 11.7 14.0
01/20/2019 04:00 218.82 0.00 39.8 -- 12.3 14.0
01/20/2019 03:00 218.81 0.00 39.8 -- 13.3 14.0
01/20/2019 02:00 218.82 0.00 39.7 -- 14.2 14.3
01/20/2019 01:00 218.82 0.00 39.7 -- 14.2 14.0
01/20/2019 00:00 218.81 0.00 39.7 0.00 14.4 14.0
01/19/2019 23:00 218.81 0.00 39.7 -- 14.7 14.0
01/19/2019 22:00 218.82 0.00 39.7 -- 16.9 14.0
01/19/2019 21:00 218.82 0.00 39.7 -- 21.5 14.0
01/19/2019 20:00 218.82 0.00 39.7 -- 23.4 14.0
01/19/2019 19:00 218.82 0.00 39.7 -- 23.5 14.0
01/19/2019 18:00 218.82 0.00 39.7 -- 23.8 14.0
01/19/2019 17:00 218.82 0.00 39.8 -- 25.3 14.0
01/19/2019 16:00 218.82 0.00 39.8 -- 26.4 14.0
01/19/2019 15:00 218.82 0.00 39.8 -- 27.9 14.0
01/19/2019 14:00 218.82 0.00 39.7 -- 27.9 14.0
01/19/2019 13:00 218.83 0.00 39.8 -- 28.3 14.0
01/19/2019 12:00 218.83 0.00 39.8 -- 29.2 14.0
01/19/2019 11:00 218.83 0.00 39.7 -- 27.0 14.0
01/19/2019 10:00 218.84 0.00 39.7 -- 24.7 14.0
01/19/2019 09:00 218.84 0.00 39.7 -- 23.6 14.0
01/19/2019 08:00 218.83 0.00 39.7 -- 21.6 14.0
01/19/2019 07:00 218.84 0.00 39.7 -- 20.6 14.0
01/19/2019 06:00 218.84 0.00 39.7 -- 22.5 14.3
01/19/2019 05:00 218.85 0.00 39.7 -- 24.6 14.5
01/19/2019 04:00 218.84 0.00 39.7 -- 26.6 14.5
01/19/2019 03:00 218.85 0.00 39.7 -- 27.5 15.0
01/19/2019 02:00 218.85 0.00 39.7 -- 25.0 15.0
01/19/2019 01:00 218.85 0.00 39.7 -- 28.0 14.8
01/19/2019 00:00 218.86 0.00 39.7 0.00 30.0 15.0
01/18/2019 23:00 218.85 0.00 39.7 -- 30.5 15.0
01/18/2019 22:00 218.85 0.00 39.7 -- 29.4 15.0
01/18/2019 21:00 218.86 0.00 39.7 -- 29.4 15.0
01/18/2019 20:00 218.86 0.00 39.6 -- 28.3 15.0
01/18/2019 19:00 218.86 0.00 39.7 -- 28.4 15.0
01/18/2019 18:00 218.86 0.00 39.7 -- 30.6 15.0
01/18/2019 17:00 218.86 0.00 39.7 -- 31.7 15.0
01/18/2019 16:00 218.87 0.00 39.7 -- 33.1 15.0
01/18/2019 15:00 218.88 0.00 39.7 -- 34.2 15.0
01/18/2019 14:00 218.87 0.00 39.7 -- 33.3 15.0
01/18/2019 13:00 218.87 0.00 39.7 -- 32.4 15.0
01/18/2019 12:00 218.87 0.00 39.7 -- 30.0 15.0
01/18/2019 11:00 218.88 0.00 39.7 -- 26.6 15.0
01/18/2019 10:00 218.88 0.00 39.7 -- 22.7 15.0
01/18/2019 09:00 218.88 0.00 39.7 -- 20.1 15.0
01/18/2019 08:00 218.88 0.00 39.7 -- 18.0 15.0
01/18/2019 07:00 218.89 0.00 39.7 -- 16.4 15.0
01/18/2019 06:00 218.89 0.00 39.7 -- 13.9 15.0
01/18/2019 05:00 218.89 0.00 39.7 -- 15.9 15.0
01/18/2019 04:00 218.89 0.00 39.7 -- 17.0 15.0
01/18/2019 03:00 218.89 0.00 39.7 -- 17.8 15.0
01/18/2019 02:00 218.88 0.00 39.7 -- 17.8 15.0
01/18/2019 01:00 218.89 0.00 39.7 -- 17.5 15.0
01/18/2019 00:00 218.90 0.00 39.7 0.00 17.4 15.0
01/17/2019 23:00 218.89 0.00 39.7 -- 17.0 15.0
01/17/2019 22:00 218.90 0.00 39.7 -- 16.4 15.5
01/17/2019 21:00 218.91 0.00 39.7 -- 15.8 15.8
01/17/2019 20:00 218.90 0.00 39.6 -- 15.0 15.5
01/17/2019 19:00 218.92 0.00 39.6 -- 14.9 16.0
01/17/2019 18:00 218.91 0.00 39.6 -- 15.7 16.0
01/17/2019 17:00 218.92 0.00 39.7 -- 18.8 16.0
01/17/2019 16:00 218.92 0.00 39.7 -- 22.5 16.0
01/17/2019 15:00 218.91 0.00 39.7 -- 22.8 16.0
01/17/2019 14:00 218.92 0.00 39.7 -- 25.0 16.0
01/17/2019 13:00 218.91 0.00 39.7 -- 22.4 16.0
01/17/2019 12:00 218.93 0.00 39.7 -- 21.7 16.0
01/17/2019 11:00 218.92 0.00 39.7 -- 18.6 16.0
01/17/2019 10:00 218.94 0.00 39.7 -- 15.2 16.0
01/17/2019 09:00 218.92 0.00 39.7 -- 11.9 16.0
01/17/2019 08:00 218.94 0.00 39.7 -- 9.7 16.0
01/17/2019 07:00 218.92 0.00 39.7 -- 9.6 16.0
01/17/2019 06:00 218.94 0.00 39.6 -- 9.8 16.0
01/17/2019 05:00 218.94 0.00 39.6 -- 10.6 16.0
01/17/2019 04:00 218.94 0.00 39.6 -- 11.8 16.0
01/17/2019 03:00 218.94 0.00 39.6 -- 13.6 16.0
01/17/2019 02:00 218.94 0.00 39.6 -- 15.8 16.0
01/17/2019 01:00 218.95 0.00 39.6 -- 18.3 16.0
01/17/2019 00:00 218.95 0.00 39.6 0.00 22.2 16.0
01/16/2019 23:00 218.96 0.00 39.6 -- 25.5 16.0
01/16/2019 22:00 218.97 0.00 39.6 -- 29.0 16.8
01/16/2019 21:00 218.97 0.00 39.6 -- 31.4 16.3
01/16/2019 20:00 218.96 0.00 39.6 -- 31.1 16.5
01/16/2019 19:00 218.95 0.00 39.6 -- 32.7 16.3
01/16/2019 18:00 218.96 0.00 39.6 -- 31.1 16.3
01/16/2019 17:00 218.96 0.00 39.7 -- 33.6 16.3
01/16/2019 16:00 218.96 0.00 39.7 -- 35.1 16.5
01/16/2019 15:00 218.97 0.00 39.6 -- 36.2 17.0
01/16/2019 14:00 218.97 0.00 39.7 -- 35.5 16.8
01/16/2019 13:00 218.98 0.00 39.7 -- 34.1 17.0
01/16/2019 12:00 218.98 0.00 39.7 -- 33.5 16.8
01/16/2019 11:00 218.98 0.00 39.7 -- 30.5 17.0
01/16/2019 10:00 218.98 0.00 39.7 -- 29.2 17.0
01/16/2019 09:00 218.97 0.00 39.6 -- 23.6 17.0
01/16/2019 08:00 218.97 0.00 39.6 -- 20.2 17.0
01/16/2019 07:00 218.98 0.00 39.7 -- 19.7 17.0
01/16/2019 06:00 218.98 0.00 39.6 -- 17.1 17.0
01/16/2019 05:00 218.98 0.00 39.6 -- 15.9 17.0
01/16/2019 04:00 218.99 0.00 39.6 -- 16.6 17.0
01/16/2019 03:00 218.99 0.00 39.6 -- 18.2 17.0
01/16/2019 02:00 218.99 0.00 39.6 -- 19.9 17.0
01/16/2019 01:00 218.99 0.00 39.6 -- 22.7 17.0
01/16/2019 00:00 219.00 0.00 39.6 0.00 22.3 17.0
01/15/2019 23:00 219.00 0.00 39.6 -- 21.5 17.0
01/15/2019 22:00 219.00 0.00 39.6 -- 20.0 17.0
01/15/2019 21:00 219.01 0.00 39.6 -- 21.4 17.0
01/15/2019 20:00 219.01 0.00 39.6 -- 23.1 17.0
01/15/2019 19:00 219.01 0.00 39.6 -- 25.2 17.0
01/15/2019 18:00 219.01 0.00 39.6 -- 27.3 17.0
01/15/2019 17:00 219.01 0.00 39.6 -- 28.5 17.0
01/15/2019 16:00 219.02 0.00 39.6 -- 31.1 17.0
01/15/2019 15:00 219.02 0.00 39.6 -- 32.2 17.0
01/15/2019 14:00 219.02 0.00 39.6 -- 33.0 17.3
01/15/2019 13:00 219.03 0.00 39.7 -- 33.5 17.5
01/15/2019 12:00 219.03 0.00 39.7 -- 31.3 17.8
01/15/2019 11:00 219.03 0.00 39.6 -- 32.7 18.0
01/15/2019 10:00 219.03 0.00 39.6 -- 27.8 18.0
01/15/2019 09:00 219.03 0.00 39.7 -- 21.9 18.0
01/15/2019 08:00 219.03 0.00 39.7 -- 17.4 18.0
01/15/2019 07:00 219.03 0.00 39.7 -- 16.9 18.0
01/15/2019 06:00 219.03 0.00 39.7 -- 16.4 18.0
01/15/2019 05:00 219.05 0.00 39.6 -- 15.7 18.0
01/15/2019 04:00 219.04 0.00 39.6 -- 13.6 18.0
01/15/2019 03:00 219.05 0.00 39.6 -- 12.9 18.0
01/15/2019 02:00 219.05 0.00 39.6 -- 12.7 18.0
01/15/2019 01:00 219.06 0.00 39.6 -- 12.8 18.0
01/15/2019 00:00 219.05 0.00 39.6 0.00 13.9 18.0
01/14/2019 23:00 219.06 0.00 39.6 -- 13.7 18.0
01/14/2019 22:00 219.06 0.00 39.6 -- 14.8 18.0
01/14/2019 21:00 219.07 0.00 39.6 -- 15.8 18.0
01/14/2019 20:00 219.07 0.00 39.6 -- 17.1 18.0
01/14/2019 19:00 219.07 0.00 39.6 -- 19.4 18.0
01/14/2019 18:00 219.07 0.00 39.6 -- 22.0 18.0
01/14/2019 17:00 219.07 0.00 39.6 -- 25.0 18.0
01/14/2019 16:00 219.07 0.00 39.6 -- 29.1 18.0
01/14/2019 15:00 219.08 0.00 39.6 -- 31.2 18.0
01/14/2019 14:00 219.08 0.00 39.6 -- 35.8 18.0
01/14/2019 13:00 219.08 0.00 39.6 -- 33.2 18.5
01/14/2019 12:00 219.08 0.00 39.6 -- 28.1 19.0
01/14/2019 11:00 219.08 0.00 39.6 -- 23.6 19.0
01/14/2019 10:00 219.09 0.00 39.6 -- 17.8 19.0
01/14/2019 09:00 219.09 0.00 39.6 -- 11.6 19.0
01/14/2019 08:00 219.09 0.00 39.6 -- 9.6 19.0
01/14/2019 07:00 219.10 0.00 39.6 -- 11.1 19.0
01/14/2019 06:00 219.10 0.00 39.6 -- 11.9 19.0
01/14/2019 05:00 219.10 0.00 39.6 -- 11.1 19.0
01/14/2019 04:00 219.10 0.00 39.6 -- 10.5 19.0
01/14/2019 03:00 219.11 0.00 39.7 -- 10.2 19.0
01/14/2019 02:00 219.11 0.00 39.6 -- 10.5 19.0
01/14/2019 01:00 219.11 0.00 39.6 -- 8.6 19.0
01/14/2019 00:00 219.11 0.00 39.6 0.00 8.9 19.0
01/13/2019 23:00 219.12 0.00 39.6 -- 9.3 19.0
01/13/2019 22:00 219.12 0.00 39.6 -- 10.1 19.0
01/13/2019 21:00 219.12 0.00 39.6 -- 11.3 19.0
01/13/2019 20:00 219.13 0.00 39.6 -- 12.6 19.0
01/13/2019 19:00 219.12 0.00 39.6 -- 14.6 19.0
01/13/2019 18:00 219.13 0.00 39.6 -- 17.0 19.0
01/13/2019 17:00 219.13 0.00 39.6 -- 20.3 19.0
01/13/2019 16:00 219.14 0.00 39.6 -- 26.0 19.0
01/13/2019 15:00 219.14 0.00 39.6 -- 25.4 19.3
01/13/2019 14:00 219.14 0.00 39.6 -- 27.0 20.0
01/13/2019 13:00 219.14 0.00 39.6 -- 27.5 20.0
01/13/2019 12:00 219.14 0.00 39.6 -- 27.0 20.0
01/13/2019 11:00 219.15 0.00 39.6 -- 20.9 20.0
01/13/2019 10:00 219.15 0.00 39.7 -- 20.7 20.0
01/13/2019 09:00 219.15 0.00 39.6 -- 10.0 20.0
01/13/2019 08:00 219.15 0.00 39.6 -- 6.4 20.0
01/13/2019 07:00 219.16 0.00 39.6 -- 6.8 20.0
01/13/2019 06:00 219.16 0.00 39.6 -- 7.9 20.0
01/13/2019 05:00 219.16 0.00 39.6 -- 8.3 20.0
01/13/2019 04:00 219.17 0.00 39.6 -- 9.2 20.0
01/13/2019 03:00 219.17 0.00 39.7 -- 9.9 20.0
01/13/2019 02:00 219.17 0.00 39.7 -- 10.1 20.0
01/13/2019 01:00 219.17 0.00 39.7 -- 10.3 20.0
01/13/2019 00:00 219.18 0.00 39.7 0.00 11.2 20.0
01/12/2019 23:00 219.18 0.00 39.7 -- 12.2 20.0
01/12/2019 22:00 219.17 0.00 39.6 -- 12.7 20.0
01/12/2019 21:00 219.18 0.00 39.6 -- 13.8 20.0
01/12/2019 20:00 219.17 0.00 39.6 -- 14.7 20.3
01/12/2019 19:00 219.20 0.00 39.6 -- 15.8 20.5
01/12/2019 18:00 219.20 0.00 39.6 -- 16.8 20.5
01/12/2019 17:00 219.20 0.00 39.6 -- 17.5 20.8
01/12/2019 16:00 219.21 0.00 39.6 -- 18.9 20.8
01/12/2019 15:00 219.19 0.00 39.6 -- 19.1 20.5
01/12/2019 14:00 219.20 0.00 39.6 -- 20.1 20.8
01/12/2019 13:00 219.21 0.00 39.6 -- 19.5 20.5
01/12/2019 12:00 219.21 0.00 39.6 -- 18.0 20.8
01/12/2019 11:00 219.23 0.00 39.6 -- 15.2 20.5
01/12/2019 10:00 219.23 0.00 39.6 -- 13.0 21.0
01/12/2019 09:00 219.23 0.00 39.6 -- 9.9 21.0
01/12/2019 08:00 219.22 0.00 39.6 -- 7.5 21.0
01/12/2019 07:00 219.22 0.00 39.6 -- 6.9 21.0
01/12/2019 06:00 219.22 0.00 39.6 -- 7.1 21.0
01/12/2019 05:00 219.23 0.00 39.6 -- 7.0 21.0
01/12/2019 04:00 219.23 0.00 39.6 -- 7.0 21.0
01/12/2019 03:00 219.23 0.00 39.6 -- 7.6 21.0
01/12/2019 02:00 219.24 0.00 39.6 -- 7.7 21.0
01/12/2019 01:00 219.23 0.00 39.6 -- 7.7 21.0
01/12/2019 00:00 219.25 0.00 39.6 0.00 7.8 21.0
01/11/2019 23:00 219.24 0.00 39.6 -- 7.6 21.0
01/11/2019 22:00 219.26 0.00 39.6 -- 8.0 21.5
01/11/2019 21:00 219.23 0.00 39.6 -- 8.5 21.3
01/11/2019 20:00 219.26 0.00 39.6 -- 9.8 21.5
01/11/2019 19:00 219.24 0.00 39.6 -- 12.0 21.3
01/11/2019 18:00 219.26 0.00 39.6 -- 13.9 22.0
01/11/2019 17:00 219.25 0.00 39.6 -- 16.0 21.8
01/11/2019 16:00 219.27 0.00 39.6 -- 18.5 21.8
01/11/2019 15:00 219.25 0.00 39.6 -- 20.1 22.0
01/11/2019 14:00 219.26 0.00 39.6 -- 22.2 21.8
01/11/2019 13:00 219.24 0.00 39.6 -- 21.9 21.5
01/11/2019 12:00 219.27 0.00 39.6 -- 21.1 21.8
01/11/2019 11:00 219.29 0.00 39.6 -- 21.0 22.0
01/11/2019 10:00 219.25 0.00 39.6 -- 19.7 21.8
01/11/2019 09:00 219.27 0.00 39.6 -- 16.4 22.0
01/11/2019 08:00 219.26 0.00 39.6 -- 15.2 22.3
01/11/2019 07:00 219.28 0.00 39.7 -- 15.1 22.0
01/11/2019 06:00 219.28 0.00 39.7 -- 15.9 22.0
01/11/2019 05:00 219.26 0.00 39.6 -- 16.1 22.0
01/11/2019 04:00 219.28 0.00 39.6 -- 16.7 22.0
01/11/2019 03:00 219.26 0.00 39.6 -- 17.4 22.0
01/11/2019 02:00 219.30 0.00 39.6 -- 18.2 22.0
01/11/2019 01:00 219.31 0.00 39.6 -- 18.7 22.3
01/11/2019 00:00 219.31 0.00 39.6 0.00 19.1 22.5
01/10/2019 23:00 219.28 0.00 39.7 -- 19.7 22.0
01/10/2019 22:00 219.27 0.00 39.6 -- 20.2 22.0
01/10/2019 21:00 219.29 0.00 39.6 -- 21.0 22.0
01/10/2019 20:00 219.30 0.00 39.6 -- 22.2 22.5
01/10/2019 19:00 219.29 0.00 39.6 -- 23.1 22.3
01/10/2019 18:00 219.34 0.00 39.6 -- 23.9 22.3
01/10/2019 17:00 219.29 0.00 39.6 -- 25.1 22.8
01/10/2019 16:00 219.29 0.00 39.6 -- 26.2 22.3
01/10/2019 15:00 219.30 0.00 39.6 -- 27.5 22.3
01/10/2019 14:00 219.28 0.00 39.6 -- 30.5 22.8
01/10/2019 13:00 219.31 0.00 39.5 -- 30.5 22.5
01/10/2019 12:00 219.29 0.00 39.5 -- 31.1 22.5
01/10/2019 11:00 219.30 0.00 39.6 -- 30.8 22.5
01/10/2019 10:00 219.30 0.00 39.6 -- 32.2 22.5
01/10/2019 09:00 219.31 0.00 39.6 -- 29.8 22.8
01/10/2019 08:00 219.30 0.00 39.5 -- 28.5 22.5
01/10/2019 07:00 219.30 0.00 39.5 -- 29.4 22.8
01/10/2019 06:00 219.31 0.00 39.5 -- 30.0 22.5
01/10/2019 05:00 219.32 0.00 39.6 -- 30.9 22.8
01/10/2019 04:00 219.31 0.00 39.6 -- 31.9 22.5
01/10/2019 03:00 219.30 0.00 39.6 -- 31.7 22.8
01/10/2019 02:00 219.31 0.00 39.6 -- 32.0 22.5
01/10/2019 01:00 219.30 0.00 39.6 -- 31.7 22.3
01/10/2019 00:00 219.30 0.00 39.6 0.00 32.2 22.5
01/09/2019 23:00 219.32 0.00 39.6 -- 33.9 23.0
01/09/2019 22:00 219.28 0.00 39.6 -- 34.4 22.5
01/09/2019 21:00 219.30 0.00 39.6 -- 34.3 22.3
01/09/2019 20:00 219.31 0.00 39.6 -- 34.5 22.5
01/09/2019 19:00 219.31 0.00 39.6 -- 35.3 22.5
01/09/2019 18:00 219.29 0.00 39.6 -- 35.7 22.8
01/09/2019 17:00 219.30 0.01 39.6 -- 35.4 22.5
01/09/2019 16:00 219.27 0.01 39.6 -- 35.2 22.8
01/09/2019 15:00 219.29 0.01 39.6 -- 34.6 22.0
01/09/2019 14:00 219.34 0.03 39.6 -- 34.5 22.8
01/09/2019 13:00 219.32 0.09 39.6 -- 35.3 22.3
01/09/2019 12:00 219.30 0.11 39.6 -- 36.3 22.3
01/09/2019 11:00 219.29 0.08 39.6 -- 35.0 22.0
01/09/2019 10:00 219.29 0.05 39.5 -- 34.2 22.0
01/09/2019 09:00 219.30 0.01 39.6 -- 32.5 22.0
01/09/2019 08:00 219.30 0.00 39.6 -- 32.1 22.0
01/09/2019 07:00 219.30 0.01 39.5 -- 32.0 22.0
01/09/2019 06:00 219.28 0.06 39.6 -- 32.0 22.0
01/09/2019 05:00 219.28 0.03 39.6 -- 32.0 22.0
01/09/2019 04:00 219.28 0.00 39.6 -- 32.0 22.0
01/09/2019 03:00 219.28 0.01 39.5 -- 31.9 22.0
01/09/2019 02:00 219.28 0.00 39.5 -- 31.8 22.0
01/09/2019 01:00 219.28 0.00 39.5 -- 32.0 22.0
01/09/2019 00:00 219.29 0.01 39.5 0.51 32.1 22.0
01/08/2019 23:00 219.28 0.07 39.5 -- 31.8 22.0
01/08/2019 22:00 219.28 0.00 39.5 -- 32.0 22.0
01/08/2019 21:00 219.27 0.00 39.5 -- 31.1 22.0
01/08/2019 20:00 219.28 0.00 39.5 -- 31.0 22.0
01/08/2019 19:00 219.28 0.00 39.5 -- 30.6 22.0
01/08/2019 18:00 219.27 0.00 39.5 -- 29.8 22.0
01/08/2019 17:00 219.28 0.00 39.5 -- 29.2 22.0
01/08/2019 16:00 219.28 0.00 39.5 -- 29.0 22.0
01/08/2019 15:00 219.28 0.00 39.5 -- 28.8 22.0
01/08/2019 14:00 219.29 0.00 39.5 -- 28.7 22.0
01/08/2019 13:00 219.29 0.00 39.5 -- 27.4 22.0
01/08/2019 12:00 219.29 0.00 39.5 -- 25.7 22.0
01/08/2019 11:00 219.30 0.00 39.5 -- 25.2 22.0
01/08/2019 10:00 219.29 0.00 39.5 -- 23.0 22.0
01/08/2019 09:00 219.29 0.00 39.5 -- 21.9 22.5
01/08/2019 08:00 219.29 0.00 39.5 -- 21.2 22.3
01/08/2019 07:00 219.31 0.00 39.5 -- 20.6 22.3
01/08/2019 06:00 219.30 0.00 39.5 -- 20.4 22.8
01/08/2019 05:00 219.31 0.00 39.5 -- 19.6 22.8
01/08/2019 04:00 219.30 0.00 39.5 -- 20.2 22.8
01/08/2019 03:00 219.31 0.00 39.5 -- 22.5 22.8
01/08/2019 02:00 219.31 0.00 39.5 -- 22.4 23.0
01/08/2019 01:00 219.31 0.00 39.6 -- 21.9 23.0
01/08/2019 00:00 219.31 0.00 39.6 0.08 21.5 23.0
01/07/2019 23:00 219.31 0.00 39.6 -- 21.1 23.0
01/07/2019 22:00 219.32 0.00 39.5 -- 20.0 23.0
01/07/2019 21:00 219.32 0.00 39.5 -- 19.3 23.0
01/07/2019 20:00 219.33 0.00 39.5 -- 18.3 23.0
01/07/2019 19:00 219.33 0.00 39.5 -- 20.4 23.0
01/07/2019 18:00 219.33 0.00 39.6 -- 20.8 23.0
01/07/2019 17:00 219.33 0.00 39.6 -- 21.6 23.0
01/07/2019 16:00 219.33 0.00 39.6 -- 23.7 23.0
01/07/2019 15:00 219.33 0.00 39.6 -- 25.3 23.0
01/07/2019 14:00 219.34 0.00 39.6 -- 25.6 23.0
01/07/2019 13:00 219.34 0.00 39.6 -- 25.6 23.0
01/07/2019 12:00 219.34 0.00 39.6 -- 23.4 23.0
01/07/2019 11:00 219.35 0.00 39.6 -- 23.0 23.0
01/07/2019 10:00 219.36 0.00 39.6 -- 18.9 23.3
01/07/2019 09:00 219.34 0.00 39.6 -- 15.0 23.3
01/07/2019 08:00 219.36 0.00 39.6 -- 12.9 23.8
01/07/2019 07:00 219.36 0.00 39.6 -- 12.9 23.5
01/07/2019 06:00 219.36 0.00 39.6 -- 13.1 23.8
01/07/2019 05:00 219.35 0.00 39.5 -- 13.7 23.8
01/07/2019 04:00 219.35 0.00 39.5 -- 15.0 23.5
01/07/2019 03:00 219.37 0.00 39.5 -- 16.0 24.0
01/07/2019 02:00 219.36 0.00 39.5 -- 17.4 24.0
01/07/2019 01:00 219.37 0.00 39.5 -- 18.8 24.0
01/07/2019 00:00 219.37 0.00 39.5 0.00 19.8 23.8
01/06/2019 23:00 219.38 0.00 39.5 -- 20.4 23.8
01/06/2019 22:00 219.36 0.00 39.5 -- 21.8 24.0
01/06/2019 21:00 219.40 0.00 39.5 -- 24.4 24.0
01/06/2019 20:00 219.38 0.00 39.5 -- 25.9 24.0
01/06/2019 19:00 219.35 0.00 39.5 -- 26.9 23.8
01/06/2019 18:00 219.33 0.00 39.5 -- 28.3 24.0
01/06/2019 17:00 219.38 0.01 39.5 -- 31.3 24.3
01/06/2019 16:00 219.41 0.00 39.5 -- 35.3 24.3
01/06/2019 15:00 219.40 0.00 39.6 -- 38.9 23.8
01/06/2019 14:00 219.38 0.00 39.5 -- 40.1 24.3
01/06/2019 13:00 219.40 0.00 39.6 -- 39.6 24.0
01/06/2019 12:00 219.40 0.00 39.6 -- 39.1 24.0
01/06/2019 11:00 219.40 0.00 39.6 -- 38.9 24.0
01/06/2019 10:00 219.40 0.00 39.6 -- 36.6 24.3
01/06/2019 09:00 219.40 0.00 39.6 -- 33.3 24.3
01/06/2019 08:00 219.41 0.00 39.6 -- 33.3 24.8
01/06/2019 07:00 219.40 0.00 39.5 -- 33.9 24.5
01/06/2019 06:00 219.41 0.00 39.5 -- 32.7 25.0
01/06/2019 05:00 219.41 0.00 39.5 -- 31.9 25.0
01/06/2019 04:00 219.40 0.00 39.5 -- 32.8 24.8
01/06/2019 03:00 219.42 0.00 39.5 -- 28.1 25.0
01/06/2019 02:00 219.42 0.00 39.5 -- 28.0 25.0
01/06/2019 01:00 219.42 0.00 39.5 -- 28.4 25.0
01/06/2019 00:00 219.43 0.00 39.6 0.01 28.8 25.0
01/05/2019 23:00 219.43 0.00 39.5 -- 29.6 25.0
01/05/2019 22:00 219.43 0.00 39.5 -- 30.4 25.0
01/05/2019 21:00 219.43 0.00 39.5 -- 31.5 25.0
01/05/2019 20:00 219.43 0.00 39.5 -- 32.6 25.0
01/05/2019 19:00 219.44 0.01 39.5 -- 33.5 25.0
01/05/2019 18:00 219.43 0.01 39.5 -- 33.9 25.0
01/05/2019 17:00 219.44 0.01 39.5 -- 34.0 25.0
01/05/2019 16:00 219.44 0.00 39.6 -- 35.0 25.0
01/05/2019 15:00 219.44 0.01 39.7 -- 36.4 25.0
01/05/2019 14:00 219.44 0.00 39.7 -- 36.9 25.0
01/05/2019 13:00 219.44 0.00 39.7 -- 36.5 25.0
01/05/2019 12:00 219.45 0.00 39.6 -- 35.3 25.0
01/05/2019 11:00 219.45 0.01 39.6 -- 34.1 25.0
01/05/2019 10:00 219.45 0.00 39.6 -- 34.0 25.0
01/05/2019 09:00 219.45 0.00 39.5 -- 32.8 25.0
01/05/2019 08:00 219.45 0.00 39.5 -- 31.6 25.0
01/05/2019 07:00 219.45 0.00 39.5 -- 30.5 25.0
01/05/2019 06:00 219.45 0.00 39.5 -- 29.0 25.5
01/05/2019 05:00 219.46 0.00 39.5 -- 27.4 25.3
01/05/2019 04:00 219.45 0.00 39.6 -- 27.1 25.8
01/05/2019 03:00 219.46 0.00 39.6 -- 27.4 25.3
01/05/2019 02:00 219.46 0.00 39.5 -- 27.6 26.0
01/05/2019 01:00 219.46 0.00 39.5 -- 27.3 25.8
01/05/2019 00:00 219.47 0.00 39.5 0.05 27.6 26.0
01/04/2019 23:00 219.47 0.00 39.6 -- 27.5 26.0
01/04/2019 22:00 219.47 0.00 39.5 -- 27.3 26.0
01/04/2019 21:00 219.47 0.00 39.5 -- 28.8 26.0
01/04/2019 20:00 219.48 0.00 39.6 -- 28.8 26.0
01/04/2019 19:00 219.48 0.00 39.6 -- 29.8 26.0
01/04/2019 18:00 219.48 0.00 39.6 -- 30.6 26.0
01/04/2019 17:00 219.48 0.00 39.6 -- 33.8 26.0
01/04/2019 16:00 219.49 0.00 39.6 -- 37.3 26.0
01/04/2019 15:00 219.48 0.00 39.6 -- 41.9 26.0
01/04/2019 14:00 219.50 0.00 39.6 -- 43.6 26.0
01/04/2019 13:00 219.51 0.00 39.6 -- 42.1 26.0
01/04/2019 12:00 219.50 0.00 39.6 -- 40.7 26.0
01/04/2019 11:00 219.51 0.00 39.5 -- 40.0 26.3
01/04/2019 10:00 219.49 0.00 39.5 -- 36.5 26.3
01/04/2019 09:00 219.51 0.00 39.5 -- 32.9 26.0
01/04/2019 08:00 219.50 0.00 39.6 -- 29.3 26.3
01/04/2019 07:00 219.50 0.00 39.6 -- 28.6 26.0
01/04/2019 06:00 219.51 0.00 39.5 -- 28.6 26.3
01/04/2019 05:00 219.51 0.00 39.5 -- 29.5 26.3
01/04/2019 04:00 219.51 0.00 39.5 -- 29.5 26.8
01/04/2019 03:00 219.51 0.00 39.5 -- 29.8 26.0
01/04/2019 02:00 219.51 0.00 39.5 -- 29.3 27.0
01/04/2019 01:00 219.52 0.00 39.5 -- 28.4 26.8
01/04/2019 00:00 219.51 0.00 39.5 0.00 27.9 27.0
01/03/2019 23:00 219.52 0.00 39.5 -- 27.3 26.8
01/03/2019 22:00 219.52 0.00 39.5 -- 28.1 27.0
01/03/2019 21:00 219.52 0.00 39.6 -- 32.1 27.0
01/03/2019 20:00 219.53 0.00 39.6 -- 31.7 27.0
01/03/2019 19:00 219.52 0.00 39.5 -- 31.4 27.0
01/03/2019 18:00 219.52 0.00 39.5 -- 30.9 27.0
01/03/2019 17:00 219.54 0.00 39.5 -- 33.5 27.0
01/03/2019 16:00 219.53 0.00 39.6 -- 36.0 27.0
01/03/2019 15:00 219.53 0.01 39.6 -- 37.9 27.0
01/03/2019 14:00 219.53 0.04 39.5 -- 39.2 27.0
01/03/2019 13:00 219.54 0.06 39.5 -- 38.0 27.0
01/03/2019 12:00 219.54 0.01 39.5 -- 38.6 27.0
01/03/2019 11:00 219.54 0.01 39.5 -- 35.4 27.0
01/03/2019 10:00 219.54 0.00 39.6 -- 32.1 27.0
01/03/2019 09:00 219.55 0.00 39.5 -- 28.0 27.0
01/03/2019 08:00 219.54 0.00 39.5 -- 26.7 27.0
01/03/2019 07:00 219.54 0.00 39.5 -- 26.1 27.0
01/03/2019 06:00 219.54 0.00 39.5 -- 25.9 27.0
01/03/2019 05:00 219.55 0.00 39.5 -- 25.6 27.0
01/03/2019 04:00 219.54 0.00 39.5 -- 25.4 27.0
01/03/2019 03:00 219.54 0.00 39.5 -- 25.6 27.0
01/03/2019 02:00 219.54 0.00 39.5 -- 24.9 27.0
01/03/2019 01:00 219.54 0.00 39.5 -- 24.3 27.0
01/03/2019 00:00 219.54 0.00 39.5 0.13 23.7 27.0
01/02/2019 23:00 219.54 0.00 39.5 -- 23.2 27.0
01/02/2019 22:00 219.55 0.00 39.5 -- 22.4 27.0
01/02/2019 21:00 219.55 0.00 39.6 -- 21.9 27.0
01/02/2019 20:00 219.55 0.00 39.5 -- 20.4 27.0
01/02/2019 19:00 219.55 0.00 39.5 -- 21.0 27.0
01/02/2019 18:00 219.55 0.00 39.5 -- 23.0 27.0
01/02/2019 17:00 219.55 0.00 39.5 -- 25.2 27.0
01/02/2019 16:00 219.55 0.00 39.5 -- 28.2 27.0
01/02/2019 15:00 219.55 0.00 39.5 -- 31.3 27.0
01/02/2019 14:00 219.55 0.00 39.5 -- 34.0 27.3
01/02/2019 13:00 219.56 0.00 39.5 -- 32.8 27.0
01/02/2019 12:00 219.56 0.00 39.6 -- 31.2 27.0
01/02/2019 11:00 219.56 0.00 39.5 -- 29.3 27.0
01/02/2019 10:00 219.54 0.00 39.6 -- 27.4 27.0
01/02/2019 09:00 219.56 0.00 39.6 -- 23.0 27.0
01/02/2019 08:00 219.55 0.00 39.6 -- 22.5 27.0
01/02/2019 07:00 219.56 0.00 39.5 -- 22.1 27.0
01/02/2019 06:00 219.56 0.00 39.5 -- 22.0 27.0
01/02/2019 05:00 219.55 0.00 39.5 -- 21.9 27.0
01/02/2019 04:00 219.56 0.00 39.5 -- 22.8 27.0
01/02/2019 03:00 219.55 0.00 39.6 -- 23.1 27.0
01/02/2019 02:00 219.55 0.00 39.6 -- 24.2 27.0
01/02/2019 01:00 219.54 0.00 39.5 -- 25.6 27.0
01/02/2019 00:00 219.55 0.00 39.5 0.00 27.0 27.0
01/01/2019 23:00 219.55 0.00 39.5 -- 28.4 27.3
01/01/2019 22:00 219.54 0.00 39.5 -- 29.8 27.0
01/01/2019 21:00 219.56 0.00 39.5 -- 31.7 27.0
01/01/2019 20:00 219.54 0.00 39.5 -- 33.2 27.3
01/01/2019 19:00 219.51 0.00 39.5 -- 34.7 27.0
01/01/2019 18:00 219.53 0.00 39.5 -- 36.4 27.0
01/01/2019 17:00 219.53 0.00 39.5 -- 36.5 26.8
01/01/2019 16:00 219.55 0.00 39.6 -- 38.4 27.0
01/01/2019 15:00 219.54 0.00 39.5 -- 40.3 26.8
01/01/2019 14:00 219.55 0.00 39.5 -- 43.8 27.0
01/01/2019 13:00 219.55 0.06 39.5 -- 45.7 26.8
01/01/2019 12:00 219.52 0.27 39.5 -- 47.1 26.8
01/01/2019 11:00 219.52 0.25 39.5 -- 49.0 27.0
01/01/2019 10:00 219.53 0.10 39.5 -- 43.2 26.8
01/01/2019 09:00 219.50 0.05 39.5 -- 37.1 26.8
01/01/2019 08:00 219.51 0.02 39.5 -- 33.4 26.5
01/01/2019 07:00 219.51 0.02 39.5 -- 32.1 27.0
01/01/2019 06:00 219.49 0.02 39.5 -- 32.0 26.3
01/01/2019 05:00 219.52 0.06 39.5 -- 32.0 26.5
01/01/2019 04:00 219.52 0.04 39.5 -- 32.0 26.7
01/01/2019 03:00 219.51 0.00 39.5 -- 32.0 26.0
01/01/2019 02:00 219.50 0.00 39.5 -- 32.1 26.0
01/01/2019 01:00 219.50 0.00 39.5 -- 32.2 26.0
01/01/2019 00:00 219.49 0.00 39.5 0.90 32.4 26.0
12/31/2018 23:00 219.49 0.00 39.5 -- 32.5 26.0
12/31/2018 22:00 219.48 0.00 39.5 -- 32.6 26.0
12/31/2018 21:00 219.47 0.00 39.5 -- 32.7 26.0
12/31/2018 20:00 219.47 0.00 39.5 -- 32.8 26.0
12/31/2018 19:00 219.46 0.00 39.5 -- 33.0 25.0
12/31/2018 18:00 219.46 0.00 39.5 -- 33.1 25.0
12/31/2018 17:00 219.46 0.00 39.5 -- 33.7 25.5
12/31/2018 16:00 219.46 0.00 39.5 -- 35.0 26.0
12/31/2018 15:00 219.46 0.00 39.5 -- 37.4 26.0
12/31/2018 14:00 219.47 0.00 39.6 -- 38.6 26.0
12/31/2018 13:00 219.47 0.00 39.5 -- 39.3 26.0
12/31/2018 12:00 219.47 0.00 39.5 -- 38.6 26.0
12/31/2018 11:00 219.47 0.00 39.5 -- 39.1 26.0
12/31/2018 10:00 219.48 0.00 39.5 -- 29.0 26.0
12/31/2018 09:00 219.47 0.00 39.5 -- 24.7 26.0
12/31/2018 08:00 219.48 0.00 39.5 -- 23.2 26.0
12/31/2018 07:00 219.48 0.00 39.5 -- 23.4 26.0
12/31/2018 06:00 219.49 0.00 39.5 -- 25.6 26.0
12/31/2018 05:00 219.49 0.00 39.5 -- 26.5 26.0
12/31/2018 04:00 219.49 0.00 39.5 -- 26.1 26.0
12/31/2018 03:00 219.49 0.00 39.6 -- 25.9 26.0
12/31/2018 02:00 219.50 0.00 39.6 -- 25.9 26.0
12/31/2018 01:00 219.50 0.00 39.6 -- 25.7 26.0
12/31/2018 00:00 219.50 0.00 39.5 0.01 25.3 26.0
12/30/2018 23:00 219.50 0.00 39.5 -- 25.0 26.0
12/30/2018 22:00 219.50 0.00 39.5 -- 24.6 26.0
12/30/2018 21:00 219.50 0.00 39.5 -- 24.1 26.0
12/30/2018 20:00 219.49 0.00 39.5 -- 24.1 26.0
12/30/2018 19:00 219.51 0.00 39.5 -- 24.2 26.0
12/30/2018 18:00 219.51 0.00 39.5 -- 24.6 26.3
12/30/2018 17:00 219.51 0.00 39.5 -- 26.3 27.0
12/30/2018 16:00 219.51 0.00 39.5 -- 29.6 27.0
12/30/2018 15:00 219.52 0.00 39.5 -- 31.5 27.0
12/30/2018 14:00 219.52 0.00 39.5 -- 32.8 27.0
12/30/2018 13:00 219.52 0.00 39.5 -- 32.1 27.0
12/30/2018 12:00 219.52 0.00 39.5 -- 29.4 27.0
12/30/2018 11:00 219.52 0.00 39.5 -- 29.4 27.0
12/30/2018 10:00 219.52 0.00 39.5 -- 24.6 27.0
12/30/2018 09:00 219.53 0.00 39.5 -- 22.8 27.0
12/30/2018 08:00 219.53 0.00 39.5 -- 22.1 27.0
12/30/2018 07:00 219.53 0.00 39.5 -- 21.6 27.0
12/30/2018 06:00 219.53 0.00 39.5 -- 21.0 27.0
12/30/2018 05:00 219.53 0.00 39.5 -- 21.1 27.0
12/30/2018 04:00 219.53 0.00 39.5 -- 20.4 27.0
12/30/2018 03:00 219.53 0.00 39.5 -- 20.1 27.0
12/30/2018 02:00 219.54 0.00 39.5 -- 21.2 27.0
12/30/2018 01:00 219.53 0.00 39.6 -- 21.8 27.0
12/30/2018 00:00 219.54 0.00 39.5 0.00 22.8 27.0
12/29/2018 23:00 219.55 0.00 39.5 -- 24.3 27.0
12/29/2018 22:00 219.54 0.00 39.5 -- 26.4 27.0
12/29/2018 21:00 219.52 0.00 39.5 -- 29.1 27.3
12/29/2018 20:00 219.56 0.00 39.5 -- 31.3 27.0
12/29/2018 19:00 219.56 0.00 39.5 -- 33.9 27.3
12/29/2018 18:00 219.54 0.00 39.5 -- 36.0 27.0
12/29/2018 17:00 219.53 0.00 39.5 -- 37.9 27.0
12/29/2018 16:00 219.54 0.00 39.6 -- 40.1 27.0
12/29/2018 15:00 219.54 0.00 39.6 -- 43.9 27.0
12/29/2018 14:00 219.55 0.00 39.5 -- 44.5 27.0
12/29/2018 13:00 219.56 0.00 39.5 -- 46.2 27.0
12/29/2018 12:00 219.56 0.00 39.5 -- 47.7 27.0
12/29/2018 11:00 219.53 0.00 39.5 -- 47.3 27.0
12/29/2018 10:00 219.54 0.00 39.5 -- 45.4 27.0
12/29/2018 09:00 219.54 0.00 39.5 -- 42.8 27.0
12/29/2018 08:00 219.54 0.00 39.5 -- 41.2 27.0
12/29/2018 07:00 219.54 0.01 39.5 -- 31.6 27.0
12/29/2018 06:00 219.55 0.00 39.6 -- 31.4 27.0
12/29/2018 05:00 219.54 0.00 39.6 -- 32.8 27.0
12/29/2018 04:00 219.54 0.00 39.5 -- 38.0 27.0
12/29/2018 03:00 219.54 0.00 39.5 -- 38.7 27.0
12/29/2018 02:00 219.54 0.00 39.4 -- 32.3 27.0
12/29/2018 01:00 219.54 0.00 39.5 -- 32.3 27.0
12/29/2018 00:00 219.54 0.00 39.5 0.01 32.6 27.0
12/28/2018 23:00 219.54 0.00 39.5 -- 33.8 27.0
12/28/2018 22:00 219.55 0.00 39.5 -- 33.3 27.0
12/28/2018 21:00 219.54 0.00 39.5 -- 32.9 27.0
12/28/2018 20:00 219.54 0.01 39.4 -- 33.1 27.0
12/28/2018 19:00 219.54 0.00 39.4 -- 33.1 27.0
12/28/2018 18:00 219.53 0.01 39.4 -- 33.2 27.0
12/28/2018 17:00 219.54 0.01 39.4 -- 33.3 27.0
12/28/2018 16:00 219.54 0.05 39.4 -- 34.4 27.0
12/28/2018 15:00 219.53 0.07 39.4 -- 34.4 27.0
12/28/2018 14:00 219.52 0.04 39.4 -- 34.1 27.0
12/28/2018 13:00 219.53 0.07 39.4 -- 32.8 27.0
12/28/2018 12:00 219.52 0.06 39.5 -- 32.5 27.0
12/28/2018 11:00 219.52 0.06 39.5 -- 32.3 27.0
12/28/2018 10:00 219.52 0.09 39.4 -- 32.0 27.0
12/28/2018 09:00 219.52 0.07 39.4 -- 31.9 27.0
12/28/2018 08:00 219.51 0.06 39.4 -- 31.7 26.5
12/28/2018 07:00 219.50 0.00 39.4 -- 29.5 26.0
12/28/2018 06:00 219.51 0.00 39.4 -- 26.5 26.5
12/28/2018 05:00 219.50 0.00 39.4 -- 25.5 26.3
12/28/2018 04:00 219.50 0.00 39.4 -- 26.4 26.5
12/28/2018 03:00 219.51 0.00 39.4 -- 26.1 27.0
12/28/2018 02:00 219.51 0.00 39.4 -- 25.5 26.8
12/28/2018 01:00 219.52 0.00 39.4 -- 24.4 27.0
12/28/2018 00:00 219.52 0.00 39.4 0.60 23.1 27.0
12/27/2018 23:00 219.53 0.00 39.4 -- 23.2 27.0
12/27/2018 22:00 219.53 0.00 39.4 -- 24.7 27.0
12/27/2018 21:00 219.53 0.00 39.4 -- 24.3 27.0
12/27/2018 20:00 219.53 0.00 39.4 -- 25.5 27.0
12/27/2018 19:00 219.54 0.00 39.4 -- 25.6 27.0
12/27/2018 18:00 219.55 0.00 39.4 -- 25.4 27.0
12/27/2018 17:00 219.55 0.00 39.5 -- 26.6 27.0
12/27/2018 16:00 219.55 0.00 39.5 -- 30.8 27.0
12/27/2018 15:00 219.55 0.00 39.4 -- 32.4 27.0
12/27/2018 14:00 219.56 0.00 39.3 -- 31.6 27.0
12/27/2018 13:00 219.56 0.00 39.3 -- 32.5 27.3
12/27/2018 12:00 219.56 0.00 39.4 -- 28.5 28.0
12/27/2018 11:00 219.57 0.00 39.3 -- 26.9 27.8
12/27/2018 10:00 219.56 0.00 39.3 -- 25.4 28.0
12/27/2018 09:00 219.58 0.00 39.3 -- 23.5 28.0
12/27/2018 08:00 219.58 0.00 39.3 -- 22.6 28.0
12/27/2018 07:00 219.59 0.00 39.3 -- 22.8 28.0
12/27/2018 06:00 219.58 0.00 39.3 -- 23.8 28.0
12/27/2018 05:00 219.59 0.00 39.3 -- 24.9 28.0
12/27/2018 04:00 219.59 0.00 39.4 -- 26.7 28.0
12/27/2018 03:00 219.60 0.00 39.3 -- 27.9 28.0
12/27/2018 02:00 219.59 0.00 39.3 -- 28.0 28.0
12/27/2018 01:00 219.59 0.00 39.3 -- 27.1 28.0
12/27/2018 00:00 219.60 0.00 39.3 0.00 25.6 28.0
12/26/2018 23:00 219.61 0.00 39.5 -- 23.8 28.0
12/26/2018 22:00 219.61 0.00 39.5 -- 23.1 28.8
12/26/2018 21:00 219.61 0.00 39.3 -- 23.4 28.8
12/26/2018 20:00 219.62 0.00 39.3 -- 23.9 29.0
12/26/2018 19:00 219.62 0.00 39.3 -- 23.8 29.0
12/26/2018 18:00 219.62 0.00 39.3 -- 25.3 29.0
12/26/2018 17:00 219.63 0.00 39.3 -- 27.1 29.0
12/26/2018 16:00 219.63 0.00 39.4 -- 30.9 29.0
12/26/2018 15:00 219.63 0.00 39.4 -- 33.4 29.0
12/26/2018 14:00 219.63 0.00 39.3 -- 33.7 29.0
12/26/2018 13:00 219.65 0.00 39.3 -- 33.1 29.0
12/26/2018 12:00 219.66 0.00 39.3 -- 31.3 29.3
12/26/2018 11:00 219.63 0.00 39.3 -- 29.0 29.3
12/26/2018 10:00 219.66 0.00 39.3 -- 26.3 29.5
12/26/2018 09:00 219.65 0.00 39.3 -- 23.5 29.3
12/26/2018 08:00 219.67 0.00 39.3 -- 20.3 29.5
12/26/2018 07:00 219.66 0.00 39.3 -- 20.5 29.5
12/26/2018 06:00 219.66 0.00 39.3 -- 19.6 30.0
12/26/2018 05:00 219.67 0.00 39.3 -- 20.9 30.0
12/26/2018 04:00 219.66 0.00 39.3 -- 22.0 30.0
12/26/2018 03:00 219.67 0.00 39.3 -- 21.1 30.0
12/26/2018 02:00 219.67 0.00 39.3 -- 21.0 30.0
12/26/2018 01:00 219.68 0.00 39.3 -- 21.2 30.0
12/26/2018 00:00 219.68 0.00 39.3 0.00 21.9 30.0
12/25/2018 23:00 219.69 0.00 39.3 -- 21.9 30.0
12/25/2018 22:00 219.69 0.00 39.3 -- 23.1 30.0
12/25/2018 21:00 219.69 0.00 39.3 -- 23.4 30.0
12/25/2018 20:00 219.70 0.00 39.3 -- 24.6 30.0
12/25/2018 19:00 219.69 0.00 39.3 -- 25.1 30.3
12/25/2018 18:00 219.70 0.00 39.3 -- 26.5 30.0
12/25/2018 17:00 219.71 0.00 39.3 -- 27.6 30.5
12/25/2018 16:00 219.71 0.00 39.3 -- 29.0 30.5
12/25/2018 15:00 219.72 0.00 39.3 -- 30.7 31.0
12/25/2018 14:00 219.73 0.00 39.2 -- 32.0 31.0
12/25/2018 13:00 219.70 0.00 39.2 -- 31.7 30.8
12/25/2018 12:00 219.72 0.00 39.2 -- 30.6 31.0
12/25/2018 11:00 219.70 0.00 39.3 -- 28.8 30.8
12/25/2018 10:00 219.75 0.00 39.3 -- 25.9 31.0
12/25/2018 09:00 219.73 0.00 39.3 -- 24.3 31.0
12/25/2018 08:00 219.73 0.00 39.3 -- 23.3 31.0
12/25/2018 07:00 219.74 0.00 39.2 -- 23.7 31.0
12/25/2018 06:00 219.77 0.00 39.2 -- 24.6 31.3
12/25/2018 05:00 219.75 0.00 39.2 -- 25.8 31.3
12/25/2018 04:00 219.75 0.00 39.3 -- 26.8 31.0
12/25/2018 03:00 219.74 0.00 39.2 -- 28.1 31.5
12/25/2018 02:00 219.75 0.00 39.2 -- 29.2 31.0
12/25/2018 01:00 219.75 0.00 39.2 -- 29.7 31.5
12/25/2018 00:00 219.76 0.00 39.2 0.00 30.5 32.0
12/24/2018 23:00 219.76 0.00 39.2 -- 31.3 31.8
12/24/2018 22:00 219.76 0.00 39.2 -- 31.2 32.0
12/24/2018 21:00 219.77 0.00 39.2 -- 30.9 32.0
12/24/2018 20:00 219.77 0.00 39.2 -- 30.5 32.0
12/24/2018 19:00 219.77 0.00 39.2 -- 29.6 32.0
12/24/2018 18:00 219.77 0.00 39.2 -- 31.6 32.0
12/24/2018 17:00 219.77 0.00 39.2 -- 32.8 32.0
12/24/2018 16:00 219.77 0.00 39.2 -- 34.2 32.0
12/24/2018 15:00 219.78 0.00 39.3 -- 36.1 32.0
12/24/2018 14:00 219.77 0.00 39.3 -- 37.0 32.0
12/24/2018 13:00 219.78 0.00 39.3 -- 36.9 32.0
12/24/2018 12:00 219.78 0.00 39.3 -- 35.6 32.0
12/24/2018 11:00 219.78 0.00 39.4 -- 35.7 32.0
12/24/2018 10:00 219.78 0.00 39.3 -- 28.7 32.0
12/24/2018 09:00 219.79 0.00 39.2 -- 26.5 32.0
12/24/2018 08:00 219.79 0.00 39.2 -- 25.9 32.0
12/24/2018 07:00 219.79 0.00 39.2 -- 25.9 32.0
12/24/2018 06:00 219.79 0.00 39.2 -- 25.7 32.0
12/24/2018 05:00 219.79 0.00 39.2 -- 25.3 32.0
12/24/2018 04:00 219.79 0.00 39.2 -- 24.6 32.0
12/24/2018 03:00 219.79 0.00 39.2 -- 23.4 32.0
12/24/2018 02:00 219.79 0.00 39.2 -- 22.3 32.0
12/24/2018 01:00 219.80 0.00 39.2 -- 21.2 32.0
12/24/2018 00:00 219.79 0.00 39.2 0.00 21.5 32.0
12/23/2018 23:00 219.80 0.00 39.3 -- 21.8 32.0
12/23/2018 22:00 219.80 0.00 39.3 -- 21.6 32.0
12/23/2018 21:00 219.79 0.00 39.4 -- 23.0 32.3
12/23/2018 20:00 219.80 0.00 39.3 -- 24.3 32.3
12/23/2018 19:00 219.80 0.00 39.3 -- 25.9 32.0
12/23/2018 18:00 219.80 0.00 39.3 -- 26.5 32.0
12/23/2018 17:00 219.80 0.00 39.3 -- 28.8 32.0
12/23/2018 16:00 219.81 0.00 39.3 -- 32.7 32.5
12/23/2018 15:00 219.80 0.00 39.3 -- 34.3 32.3
12/23/2018 14:00 219.81 0.00 39.6 -- 34.8 32.8
12/23/2018 13:00 219.81 0.00 39.5 -- 34.6 32.5
12/23/2018 12:00 219.79 0.00 39.2 -- 33.6 32.3
12/23/2018 11:00 219.80 0.00 39.1 -- 31.5 32.3
12/23/2018 10:00 219.79 0.00 39.2 -- 30.3 32.3
12/23/2018 09:00 219.80 0.00 39.2 -- 28.9 32.3
12/23/2018 08:00 219.80 0.00 39.2 -- 28.1 32.0
12/23/2018 07:00 219.79 0.00 39.3 -- 28.8 32.0
12/23/2018 06:00 219.78 0.00 39.5 -- 29.2 32.0
12/23/2018 05:00 219.79 0.00 39.4 -- 30.7 32.0
12/23/2018 04:00 219.78 0.00 39.5 -- 31.5 32.0
12/23/2018 03:00 219.78 0.00 39.4 -- 32.5 32.0
12/23/2018 02:00 219.78 0.00 39.4 -- 33.0 32.0
12/23/2018 01:00 219.75 0.00 39.4 -- 33.9 31.8
12/23/2018 00:00 219.77 0.00 39.4 0.00 34.1 32.0
12/22/2018 23:00 219.78 0.00 39.5 -- 34.1 32.0
12/22/2018 22:00 219.76 0.00 39.5 -- 34.2 32.0
12/22/2018 21:00 219.76 0.00 39.5 -- 34.8 31.5
12/22/2018 20:00 219.75 0.00 39.5 -- 35.4 31.8
12/22/2018 19:00 219.75 0.00 39.4 -- 36.5 31.8
12/22/2018 18:00 219.77 0.00 39.5 -- 37.1 31.8
12/22/2018 17:00 219.77 0.00 39.6 -- 38.0 31.5
12/22/2018 16:00 219.75 0.00 39.6 -- 39.8 31.0
12/22/2018 15:00 219.73 0.00 39.5 -- 41.9 31.3
12/22/2018 14:00 219.73 0.00 39.4 -- 43.8 31.0
12/22/2018 13:00 219.71 0.01 39.4 -- 43.7 31.0
12/22/2018 12:00 219.72 0.00 39.3 -- 46.5 30.5
12/22/2018 11:00 219.72 0.02 39.4 -- 49.9 30.3
12/22/2018 10:00 219.70 0.00 39.5 -- 51.5 30.0
12/22/2018 09:00 219.68 0.00 39.4 -- 50.5 30.0
12/22/2018 08:00 219.68 0.00 39.4 -- 47.7 30.0
12/22/2018 07:00 219.67 0.00 39.4 -- 49.1 29.5
12/22/2018 06:00 219.67 0.01 39.2 -- 50.8 29.3
12/22/2018 05:00 219.65 0.00 39.3 -- 51.4 29.0
12/22/2018 04:00 219.63 0.00 39.6 -- 51.9 29.0
12/22/2018 03:00 219.62 0.00 39.4 -- 51.8 28.5
12/22/2018 02:00 219.62 0.00 39.2 -- 52.5 28.5
12/22/2018 01:00 219.59 0.01 39.6 -- 50.4 28.0
12/22/2018 00:00 219.61 0.00 39.6 0.05 48.7 28.3
12/21/2018 23:00 219.57 0.01 39.2 -- 50.9 27.8
12/21/2018 22:00 219.55 0.02 39.2 -- 45.7 27.0
12/21/2018 21:00 219.54 0.02 39.2 -- 48.4 27.0
12/21/2018 20:00 219.53 0.02 39.3 -- 52.9 27.0
12/21/2018 19:00 219.52 0.06 39.5 -- 54.7 26.8
12/21/2018 18:00 219.51 0.18 39.5 -- 58.0 26.3
12/21/2018 17:00 219.47 0.12 39.3 -- 56.3 25.5
12/21/2018 16:00 219.48 0.02 39.4 -- 54.5 26.0
12/21/2018 15:00 219.47 0.06 39.3 -- 54.8 25.3
12/21/2018 14:00 219.45 0.07 39.5 -- 51.9 25.0
12/21/2018 13:00 219.43 0.01 39.7 -- 49.0 25.0
12/21/2018 12:00 219.44 0.01 39.6 -- 48.1 25.0
12/21/2018 11:00 219.44 0.01 39.3 -- 49.4 25.0
12/21/2018 10:00 219.43 0.06 39.2 -- 45.6 25.0
12/21/2018 09:00 219.42 0.18 39.2 -- 37.6 25.0
12/21/2018 08:00 219.42 0.18 39.3 -- 37.4 24.8
12/21/2018 07:00 219.40 0.04 39.2 -- 37.2 24.0
12/21/2018 06:00 219.38 0.00 39.2 -- 35.6 24.5
12/21/2018 05:00 219.41 0.00 39.2 -- 34.9 24.3
12/21/2018 04:00 219.39 0.00 39.2 -- 34.4 24.5
12/21/2018 03:00 219.41 0.01 39.2 -- 32.9 24.5
12/21/2018 02:00 219.42 0.01 39.3 -- 32.6 25.0
12/21/2018 01:00 219.42 0.00 39.3 -- 31.9 25.0
12/21/2018 00:00 219.42 0.00 39.2 1.09 32.0 25.0
12/20/2018 23:00 219.42 0.00 39.2 -- 31.7 25.0
12/20/2018 22:00 219.42 0.00 39.3 -- 31.3 25.0
12/20/2018 21:00 219.44 0.00 39.5 -- 30.3 25.0
12/20/2018 20:00 219.43 0.00 39.4 -- 29.8 25.0
12/20/2018 19:00 219.44 0.00 39.5 -- 29.7 25.0
12/20/2018 18:00 219.44 0.00 39.5 -- 30.5 25.0
12/20/2018 17:00 219.44 0.00 39.4 -- 30.9 25.0
12/20/2018 16:00 219.45 0.00 39.3 -- 33.7 25.0
12/20/2018 15:00 219.45 0.00 39.3 -- 37.3 25.0
12/20/2018 14:00 219.45 0.00 39.3 -- 46.1 25.0
12/20/2018 13:00 219.45 0.00 39.4 -- 44.4 25.0
12/20/2018 12:00 219.46 0.00 39.4 -- 45.9 25.0
12/20/2018 11:00 219.46 0.00 39.2 -- 43.4 26.0
12/20/2018 10:00 219.46 0.00 39.3 -- 28.4 25.8
12/20/2018 09:00 219.46 0.00 39.4 -- 21.9 26.0
12/20/2018 08:00 219.47 0.00 39.2 -- 18.5 26.0
12/20/2018 07:00 219.48 0.00 39.1 -- 17.9 26.0
12/20/2018 06:00 219.48 0.00 39.0 -- 18.8 26.0
12/20/2018 05:00 219.47 0.00 39.0 -- 19.2 26.0
12/20/2018 04:00 219.48 0.00 39.2 -- 20.0 26.0
12/20/2018 03:00 219.49 0.00 39.3 -- 20.6 26.0
12/20/2018 02:00 219.49 0.00 39.1 -- 21.9 26.0
12/20/2018 01:00 219.50 0.00 39.1 -- 22.9 26.0
12/20/2018 00:00 219.51 0.00 39.1 0.00 22.9 26.0
12/19/2018 23:00 219.50 0.00 39.1 -- 24.1 26.3
12/19/2018 22:00 219.51 0.00 39.2 -- 23.6 26.5
12/19/2018 21:00 219.51 0.00 39.2 -- 24.7 27.0
12/19/2018 20:00 219.52 0.00 39.3 -- 25.4 27.0
12/19/2018 19:00 219.52 0.00 39.3 -- 27.1 27.0
12/19/2018 18:00 219.52 0.00 39.2 -- 27.5 27.0
12/19/2018 17:00 219.53 0.00 39.2 -- 28.8 27.0
12/19/2018 16:00 219.53 0.00 39.4 -- 32.3 27.0
12/19/2018 15:00 219.53 0.00 39.4 -- 34.5 27.0
12/19/2018 14:00 219.54 0.00 39.3 -- 36.0 27.0
12/19/2018 13:00 219.54 0.00 39.2 -- 34.6 27.0
12/19/2018 12:00 219.53 0.00 39.2 -- 31.2 27.0
12/19/2018 11:00 219.55 0.00 39.2 -- 28.8 27.0
12/19/2018 10:00 219.55 0.00 39.2 -- 25.7 27.0
12/19/2018 09:00 219.57 0.00 39.1 -- 23.7 27.5
12/19/2018 08:00 219.56 0.00 39.1 -- 22.1 27.3
12/19/2018 07:00 219.56 0.00 39.0 -- 21.1 27.8
12/19/2018 06:00 219.56 0.00 39.1 -- 21.1 27.5
12/19/2018 05:00 219.58 0.00 39.2 -- 20.9 28.0
12/19/2018 04:00 219.56 0.00 39.2 -- 21.1 27.8
12/19/2018 03:00 219.59 0.00 39.2 -- 21.6 28.0
12/19/2018 02:00 219.58 0.00 39.1 -- 21.8 28.0
12/19/2018 01:00 219.59 0.00 39.2 -- 21.4 28.0
12/19/2018 00:00 219.60 0.00 39.2 0.00 21.4 28.0
12/18/2018 23:00 219.59 0.00 39.1 -- 21.1 28.3
12/18/2018 22:00 219.60 0.00 39.1 -- 20.9 28.0
12/18/2018 21:00 219.62 0.00 39.1 -- 21.1 28.5
12/18/2018 20:00 219.60 0.00 39.2 -- 21.7 28.0
12/18/2018 19:00 219.62 0.00 39.2 -- 22.3 28.3
12/18/2018 18:00 219.62 0.00 39.2 -- 22.8 28.8
12/18/2018 17:00 219.61 0.00 39.2 -- 24.1 29.0
12/18/2018 16:00 219.63 0.00 39.2 -- 25.2 28.8
12/18/2018 15:00 219.63 0.00 39.2 -- 26.0 28.5
12/18/2018 14:00 219.61 0.00 39.2 -- 26.8 29.3
12/18/2018 13:00 219.63 0.00 39.2 -- 27.5 29.3
12/18/2018 12:00 219.61 0.00 39.2 -- 26.4 29.3
12/18/2018 11:00 219.61 0.00 39.3 -- 24.7 29.3
12/18/2018 10:00 219.64 0.00 39.3 -- 23.5 28.5
12/18/2018 09:00 219.62 0.00 39.3 -- 21.5 29.0
12/18/2018 08:00 219.66 0.00 39.3 -- 21.2 29.5
12/18/2018 07:00 219.62 0.00 39.3 -- 21.1 29.0
12/18/2018 06:00 219.57 0.00 39.3 -- 21.5 29.5
12/18/2018 05:00 219.70 0.00 39.2 -- 22.2 29.3
12/18/2018 04:00 219.61 0.00 39.3 -- 22.8 29.5
12/18/2018 03:00 219.67 0.00 39.3 -- 24.4 29.8
12/18/2018 02:00 219.66 0.00 39.3 -- 26.7 29.5
12/18/2018 01:00 219.67 0.00 39.3 -- 28.6 30.0
12/18/2018 00:00 219.70 0.00 39.3 0.00 32.4 30.0
12/17/2018 23:00 219.68 0.00 39.3 -- 34.4 29.8
12/17/2018 22:00 219.69 0.00 39.2 -- 34.8 30.0
12/17/2018 21:00 219.68 0.00 39.2 -- 34.5 30.0
12/17/2018 20:00 219.68 0.00 39.3 -- 34.1 30.0
12/17/2018 19:00 219.68 0.00 39.3 -- 34.4 30.0
12/17/2018 18:00 219.70 0.00 39.3 -- 35.2 30.0
12/17/2018 17:00 219.69 0.01 39.2 -- 35.0 30.0
12/17/2018 16:00 219.70 0.01 39.2 -- 36.5 30.0
12/17/2018 15:00 219.70 0.02 39.2 -- 37.1 30.0
12/17/2018 14:00 219.70 0.04 39.2 -- 37.5 30.0
12/17/2018 13:00 219.70 0.08 39.2 -- 37.3 30.0
12/17/2018 12:00 219.71 0.07 39.2 -- 36.6 30.8
12/17/2018 11:00 219.71 0.07 39.2 -- 35.5 30.8
12/17/2018 10:00 219.71 0.03 39.3 -- 35.0 31.0
12/17/2018 09:00 219.71 0.00 39.3 -- 32.8 31.0
12/17/2018 08:00 219.72 0.00 39.3 -- 32.4 31.0
12/17/2018 07:00 219.72 0.00 39.2 -- 32.2 31.0
12/17/2018 06:00 219.72 0.00 39.2 -- 32.2 31.0
12/17/2018 05:00 219.72 0.00 39.1 -- 32.0 31.0
12/17/2018 04:00 219.73 0.00 39.1 -- 32.2 31.0
12/17/2018 03:00 219.73 0.00 39.2 -- 32.1 31.0
12/17/2018 02:00 219.74 0.01 39.2 -- 32.4 31.0
12/17/2018 01:00 219.75 0.03 39.1 -- 33.0 31.0
12/17/2018 00:00 219.74 0.03 39.0 0.37 32.9 31.0
12/16/2018 23:00 219.73 0.06 39.1 -- 32.6 31.0
12/16/2018 22:00 219.74 0.11 39.1 -- 32.8 31.0
12/16/2018 21:00 219.71 0.00 39.1 -- 34.8 30.5
12/16/2018 20:00 219.71 0.00 39.2 -- 35.7 30.5
12/16/2018 19:00 219.72 0.00 39.1 -- 35.4 30.8
12/16/2018 18:00 219.71 0.00 39.2 -- 35.6 31.0
12/16/2018 17:00 219.73 0.00 39.2 -- 35.5 31.0
12/16/2018 16:00 219.74 0.00 39.1 -- 35.7 31.0
12/16/2018 15:00 219.73 0.00 39.2 -- 36.6 31.0
12/16/2018 14:00 219.74 0.00 39.1 -- 36.6 31.0
12/16/2018 13:00 219.75 0.00 39.0 -- 36.3 31.0
12/16/2018 12:00 219.74 0.00 39.0 -- 35.0 31.0
12/16/2018 11:00 219.76 0.00 39.0 -- 34.1 31.8
12/16/2018 10:00 219.76 0.00 39.2 -- 33.7 32.0
12/16/2018 09:00 219.77 0.00 39.1 -- 32.2 32.0
12/16/2018 08:00 219.78 0.00 38.9 -- 30.4 32.0
12/16/2018 07:00 219.78 0.00 38.9 -- 27.9 32.0
12/16/2018 06:00 219.79 0.00 38.8 -- 26.3 32.0
12/16/2018 05:00 219.78 0.00 38.8 -- 26.1 32.0
12/16/2018 04:00 219.80 0.00 38.9 -- 26.8 32.0
12/16/2018 03:00 219.80 0.00 38.9 -- 28.1 32.5
12/16/2018 02:00 219.80 0.00 38.8 -- 28.6 32.5
12/16/2018 01:00 219.81 0.00 38.8 -- 28.3 32.8
12/16/2018 00:00 219.80 0.00 38.8 0.20 27.6 32.5
12/15/2018 23:00 219.83 0.00 38.8 -- 27.4 33.0
12/15/2018 22:00 219.83 0.00 38.8 -- 27.9 33.0
12/15/2018 21:00 219.83 0.00 38.8 -- 30.0 33.0
12/15/2018 20:00 219.83 0.00 38.8 -- 30.4 33.0
12/15/2018 19:00 219.84 0.00 38.9 -- 31.2 33.0
12/15/2018 18:00 219.85 0.00 39.1 -- 32.6 33.5
12/15/2018 17:00 219.85 0.00 39.0 -- 34.4 34.0
12/15/2018 16:00 219.86 0.00 39.0 -- 38.8 34.0
12/15/2018 15:00 219.86 0.00 39.1 -- 44.3 34.0
12/15/2018 14:00 219.87 0.00 39.0 -- 46.6 34.0
12/15/2018 13:00 219.88 0.00 39.1 -- 48.9 34.0
12/15/2018 12:00 219.88 0.00 38.9 -- 48.9 34.0
12/15/2018 11:00 219.88 0.00 38.9 -- 50.6 34.0
12/15/2018 10:00 219.89 0.00 38.7 -- 43.3 34.0
12/15/2018 09:00 219.89 0.00 38.9 -- 33.4 34.8
12/15/2018 08:00 219.91 0.00 38.8 -- 31.6 35.0
12/15/2018 07:00 219.90 0.00 38.8 -- 31.1 35.0
12/15/2018 06:00 219.91 0.00 38.7 -- 31.9 35.0
12/15/2018 05:00 219.92 0.00 38.7 -- 31.8 35.0
12/15/2018 04:00 219.92 0.00 38.7 -- 31.9 35.0
12/15/2018 03:00 219.93 0.00 38.7 -- 33.4 35.0
12/15/2018 02:00 219.94 0.00 38.7 -- 33.6 35.3
12/15/2018 01:00 219.95 0.00 38.7 -- 34.4 36.0
12/15/2018 00:00 219.95 0.00 38.7 0.00 32.8 36.0
12/14/2018 23:00 219.95 0.00 38.7 -- 32.1 36.0
12/14/2018 22:00 219.96 0.00 38.7 -- 31.2 36.0
12/14/2018 21:00 219.98 0.00 38.7 -- 30.9 36.0
12/14/2018 20:00 219.98 0.00 38.7 -- 32.9 36.0
12/14/2018 19:00 219.99 0.00 38.8 -- 32.4 36.3
12/14/2018 18:00 219.99 0.00 38.9 -- 32.3 37.0
12/14/2018 17:00 220.00 0.00 38.9 -- 33.8 37.0
12/14/2018 16:00 220.00 0.00 38.8 -- 36.3 37.0
12/14/2018 15:00 220.01 0.00 38.8 -- 40.4 37.0
12/14/2018 14:00 220.02 0.00 38.9 -- 41.9 37.0
12/14/2018 13:00 220.03 0.00 38.9 -- 42.3 37.0
12/14/2018 12:00 220.03 0.00 38.8 -- 38.2 37.3
12/14/2018 11:00 220.04 0.00 38.9 -- 35.7 38.0
12/14/2018 10:00 220.04 0.00 38.7 -- 29.2 38.0
12/14/2018 09:00 220.05 0.00 38.7 -- 25.9 38.0
12/14/2018 08:00 220.06 0.00 38.8 -- 23.3 38.0
12/14/2018 07:00 220.06 0.00 38.6 -- 20.9 38.0
12/14/2018 06:00 220.07 0.00 38.6 -- 21.8 38.3
12/14/2018 05:00 220.08 0.00 38.7 -- 22.1 39.0
12/14/2018 04:00 220.09 0.00 38.6 -- 24.6 39.0
12/14/2018 03:00 220.09 0.00 38.6 -- 26.2 39.0
12/14/2018 02:00 220.10 0.00 38.6 -- 26.3 39.0
12/14/2018 01:00 220.11 0.00 38.6 -- 25.9 39.0
12/14/2018 00:00 220.12 0.00 38.6 0.00 25.9 39.0
12/13/2018 23:00 220.12 0.00 38.6 -- 24.9 40.0
12/13/2018 22:00 220.13 0.00 38.6 -- 24.5 40.0
12/13/2018 21:00 220.14 0.00 38.6 -- 24.5 40.0
12/13/2018 20:00 220.15 0.00 38.6 -- 24.2 40.0
12/13/2018 19:00 220.16 0.00 38.6 -- 23.5 40.0
12/13/2018 18:00 220.16 0.00 38.6 -- 22.2 40.3
12/13/2018 17:00 220.17 0.00 38.7 -- 23.0 41.0
12/13/2018 16:00 220.18 0.00 38.7 -- 26.0 41.0
12/13/2018 15:00 220.19 0.00 38.7 -- 26.6 41.0
12/13/2018 14:00 220.20 0.00 38.7 -- 26.0 41.0
12/13/2018 13:00 220.20 0.00 38.6 -- 25.0 41.0
12/13/2018 12:00 220.21 0.00 38.5 -- 24.5 42.0
12/13/2018 11:00 220.21 0.00 38.6 -- 21.6 42.0
12/13/2018 10:00 220.23 0.00 38.6 -- 19.0 42.0
12/13/2018 09:00 220.23 0.00 38.6 -- 12.5 42.0
12/13/2018 08:00 220.24 0.00 38.5 -- 8.6 42.0
12/13/2018 07:00 220.25 0.00 38.5 -- 6.8 42.5
12/13/2018 06:00 220.26 0.00 38.5 -- 6.9 43.0
12/13/2018 05:00 220.27 0.00 38.6 -- 6.2 43.0
12/13/2018 04:00 220.28 0.00 38.5 -- 6.1 43.0
12/13/2018 03:00 220.29 0.00 38.5 -- 7.2 43.0
12/13/2018 02:00 220.29 0.00 38.5 -- 8.1 43.3
12/13/2018 01:00 220.30 0.00 38.5 -- 8.7 44.0
12/13/2018 00:00 220.31 0.00 38.5 0.00 10.6 44.0
12/12/2018 23:00 220.32 0.00 38.5 -- 12.5 44.0
12/12/2018 22:00 220.33 0.00 38.5 -- 14.5 44.0
12/12/2018 21:00 220.34 0.00 38.5 -- 17.2 44.3
12/12/2018 20:00 220.35 0.00 38.5 -- 20.2 45.0
12/12/2018 19:00 220.35 0.00 38.5 -- 21.8 45.0
12/12/2018 18:00 220.37 0.00 38.5 -- 23.4 45.0
12/12/2018 17:00 220.37 0.00 38.7 -- 25.4 45.3
12/12/2018 16:00 220.38 0.00 38.6 -- 27.1 45.5
12/12/2018 15:00 220.39 0.00 38.6 -- 29.1 46.0
12/12/2018 14:00 220.40 0.00 38.5 -- 31.7 46.0
12/12/2018 13:00 220.42 0.00 38.4 -- 32.2 46.0
12/12/2018 12:00 220.43 0.00 38.4 -- 31.8 46.8
12/12/2018 11:00 220.42 0.00 38.4 -- 31.8 46.5
12/12/2018 10:00 220.43 0.00 38.4 -- 30.3 47.0
12/12/2018 09:00 220.45 0.00 38.4 -- 27.3 47.0
12/12/2018 08:00 220.45 0.00 38.4 -- 26.4 47.0
12/12/2018 07:00 220.47 0.00 38.3 -- 24.4 48.0
12/12/2018 06:00 220.47 0.00 38.4 -- 20.1 48.0
12/12/2018 05:00 220.48 0.00 38.4 -- 16.6 48.0
12/12/2018 04:00 220.49 0.00 38.4 -- 15.6 48.0
12/12/2018 03:00 220.50 0.00 38.4 -- 16.7 48.0
12/12/2018 02:00 220.51 0.00 38.4 -- 17.2 49.0
12/12/2018 01:00 220.52 0.00 38.4 -- 17.6 49.0
12/12/2018 00:00 220.53 0.00 38.4 0.00 19.2 49.0
12/11/2018 23:00 220.54 0.00 38.4 -- 21.9 49.5
12/11/2018 22:00 220.55 0.00 38.4 -- 21.7 50.0
12/11/2018 21:00 220.56 0.00 38.4 -- 23.8 50.0
12/11/2018 20:00 220.57 0.00 38.3 -- 24.0 50.0
12/11/2018 19:00 220.58 0.00 38.3 -- 22.3 50.3
12/11/2018 18:00 220.59 0.00 38.3 -- 22.9 51.0
12/11/2018 17:00 220.60 0.00 38.4 -- 25.6 51.0
12/11/2018 16:00 220.61 0.00 38.4 -- 29.4 51.0
12/11/2018 15:00 220.62 0.00 38.4 -- 32.1 51.0
12/11/2018 14:00 220.63 0.00 38.4 -- 33.9 52.0
12/11/2018 13:00 220.64 0.00 38.2 -- 32.3 52.0
12/11/2018 12:00 220.66 0.00 38.2 -- 31.7 52.0
12/11/2018 11:00 220.66 0.00 38.2 -- 28.6 52.0
12/11/2018 10:00 220.68 0.00 38.2 -- 23.0 53.0
12/11/2018 09:00 220.68 0.00 38.2 -- 18.7 53.0
12/11/2018 08:00 220.70 0.00 38.2 -- 15.6 53.0
12/11/2018 07:00 220.70 0.00 38.2 -- 12.7 53.5
12/11/2018 06:00 220.72 0.00 38.2 -- 13.0 54.0
12/11/2018 05:00 220.73 0.00 38.2 -- 10.5 54.0
12/11/2018 04:00 220.74 0.00 38.2 -- 10.5 54.0
12/11/2018 03:00 220.75 0.00 38.2 -- 11.1 55.0
12/11/2018 02:00 220.76 0.00 38.2 -- 11.8 55.0
12/11/2018 01:00 220.78 0.00 38.2 -- 12.8 55.0
12/11/2018 00:00 220.78 0.00 38.2 0.00 13.9 55.3
12/10/2018 23:00 220.80 0.00 38.2 -- 15.8 56.0
12/10/2018 22:00 220.81 0.00 38.2 -- 18.0 56.0
12/10/2018 21:00 220.82 0.00 38.2 -- 21.4 56.3
12/10/2018 20:00 220.84 0.00 38.2 -- 23.8 57.0
12/10/2018 19:00 220.85 0.00 38.2 -- 25.2 57.0
12/10/2018 18:00 220.85 0.00 38.2 -- 26.4 57.5
12/10/2018 17:00 220.87 0.00 38.2 -- 27.6 58.0
12/10/2018 16:00 220.88 0.00 38.2 -- 29.2 58.0
12/10/2018 15:00 220.90 0.00 38.3 -- 31.1 58.0
12/10/2018 14:00 220.90 0.00 38.2 -- 32.3 58.8
12/10/2018 13:00 220.92 0.00 38.1 -- 33.4 59.0
12/10/2018 12:00 220.95 0.00 38.1 -- 33.1 59.0
12/10/2018 11:00 220.94 0.00 38.0 -- 33.3 59.3
12/10/2018 10:00 220.95 0.00 38.0 -- 30.8 60.0
12/10/2018 09:00 220.96 0.00 38.0 -- 29.3 60.0
12/10/2018 08:00 221.00 0.00 38.0 -- 28.3 60.8
12/10/2018 07:00 221.00 0.00 38.0 -- 26.8 61.0
12/10/2018 06:00 221.00 0.00 38.0 -- 26.8 61.0
12/10/2018 05:00 221.02 0.00 38.0 -- 22.4 61.5
12/10/2018 04:00 221.03 0.00 38.0 -- 17.7 62.0
12/10/2018 03:00 221.05 0.00 38.0 -- 17.1 62.0
12/10/2018 02:00 221.06 0.00 38.0 -- 17.8 62.8
12/10/2018 01:00 221.08 0.00 38.1 -- 18.8 63.0
12/10/2018 00:00 221.09 0.00 38.1 0.00 20.6 63.0
12/09/2018 23:00 221.10 0.00 38.0 -- 19.2 63.8
12/09/2018 22:00 221.12 0.00 38.0 -- 20.4 64.0
12/09/2018 21:00 221.13 0.00 38.0 -- 20.4 64.3
12/09/2018 20:00 221.15 0.00 38.0 -- 21.8 65.0
12/09/2018 19:00 221.16 0.00 38.0 -- 23.3 65.0
12/09/2018 18:00 221.17 0.00 38.0 -- 25.3 65.8
12/09/2018 17:00 221.19 0.00 38.0 -- 27.6 66.0
12/09/2018 16:00 221.20 0.00 38.1 -- 30.4 66.5
12/09/2018 15:00 221.21 0.00 38.0 -- 33.0 67.0
12/09/2018 14:00 221.24 0.00 37.9 -- 32.7 67.0
12/09/2018 13:00 221.24 0.00 37.9 -- 32.2 67.8
12/09/2018 12:00 221.27 0.00 37.9 -- 32.3 68.0
12/09/2018 11:00 221.27 0.00 37.9 -- 29.4 68.3
12/09/2018 10:00 221.29 0.00 37.9 -- 25.4 69.0
12/09/2018 09:00 221.31 0.00 37.9 -- 20.0 69.0
12/09/2018 08:00 221.32 0.00 37.9 -- 15.4 69.8
12/09/2018 07:00 221.33 0.00 37.9 -- 13.9 70.0
12/09/2018 06:00 221.35 0.00 37.9 -- 12.4 70.3
12/09/2018 05:00 221.36 0.00 37.9 -- 13.8 71.0
12/09/2018 04:00 221.38 0.00 37.9 -- 14.0 71.0
12/09/2018 03:00 221.39 0.00 37.9 -- 13.4 71.8
12/09/2018 02:00 221.41 0.00 37.9 -- 14.3 72.0
12/09/2018 01:00 221.43 0.00 37.9 -- 13.9 72.8
12/09/2018 00:00 221.45 0.00 37.9 0.00 14.4 73.0
12/08/2018 23:00 221.46 0.00 37.9 -- 15.2 73.5
12/08/2018 22:00 221.48 0.00 37.9 -- 14.8 74.0
12/08/2018 21:00 221.50 0.00 37.9 -- 16.5 74.5
12/08/2018 20:00 221.51 0.00 37.9 -- 16.1 75.0
12/08/2018 19:00 221.53 0.00 37.9 -- 17.5 75.0
12/08/2018 18:00 221.55 0.00 37.9 -- 20.3 76.0
12/08/2018 17:00 221.57 0.00 37.8 -- 21.2 76.0
12/08/2018 16:00 221.59 0.00 37.8 -- 22.5 77.0
12/08/2018 15:00 221.60 0.00 37.9 -- 24.2 77.3
12/08/2018 14:00 221.62 0.00 37.8 -- 24.8 78.0
12/08/2018 13:00 221.62 0.00 37.7 -- 24.3 78.0
12/08/2018 12:00 221.65 0.00 37.7 -- 24.1 79.0
12/08/2018 11:00 221.67 0.00 37.7 -- 21.6 79.3
12/08/2018 10:00 221.68 0.00 37.7 -- 19.0 80.0
12/08/2018 09:00 221.70 0.00 37.7 -- 15.2 80.0
12/08/2018 08:00 221.72 0.00 37.7 -- 13.1 81.0
12/08/2018 07:00 221.73 0.00 37.7 -- 12.7 81.3
12/08/2018 06:00 221.76 0.00 37.7 -- 13.2 82.0
12/08/2018 05:00 221.77 0.00 37.7 -- 13.8 82.3
12/08/2018 04:00 221.79 0.00 37.7 -- 14.7 83.0
12/08/2018 03:00 221.81 0.00 37.7 -- 15.5 83.5
12/08/2018 02:00 221.83 0.00 37.7 -- 16.9 84.0
12/08/2018 01:00 221.86 0.00 37.7 -- 17.5 85.0
12/08/2018 00:00 221.87 0.00 37.7 0.00 18.6 85.0
12/07/2018 23:00 221.89 0.00 37.7 -- 19.8 86.0
12/07/2018 22:00 221.91 0.00 37.7 -- 20.8 86.0
12/07/2018 21:00 221.93 0.00 37.7 -- 22.1 87.0
12/07/2018 20:00 221.95 0.00 37.7 -- 23.6 87.3
12/07/2018 19:00 221.96 0.00 37.7 -- 25.3 88.0
12/07/2018 18:00 221.98 0.00 37.7 -- 26.9 88.3
12/07/2018 17:00 222.01 0.00 37.7 -- 27.9 89.0
12/07/2018 16:00 222.02 0.00 37.7 -- 29.5 89.8
12/07/2018 15:00 222.05 0.00 37.6 -- 31.9 90.3
12/07/2018 14:00 222.07 0.00 37.6 -- 33.9 91.0
12/07/2018 13:00 222.12 0.00 37.6 -- 33.3 91.8
12/07/2018 12:00 222.12 0.00 37.5 -- 34.1 92.0
12/07/2018 11:00 222.14 0.00 37.5 -- 33.9 86.0
12/07/2018 10:00 222.14 0.00 37.6 -- 32.7 65.0
12/07/2018 09:00 222.15 0.00 37.5 -- 32.4 65.0
12/07/2018 08:00 222.18 0.00 37.5 -- 30.0 65.8
12/07/2018 07:00 222.18 0.00 37.5 -- 24.1 66.0
12/07/2018 06:00 222.20 0.00 37.5 -- 24.4 66.3
12/07/2018 05:00 222.21 0.00 37.5 -- 25.0 67.0
12/07/2018 04:00 222.23 0.00 37.5 -- 26.2 67.0
12/07/2018 03:00 222.24 0.00 37.5 -- 26.2 67.5
12/07/2018 02:00 222.26 0.00 37.5 -- 26.5 68.0
12/07/2018 01:00 222.28 0.00 37.5 -- 26.0 68.0
12/07/2018 00:00 222.28 0.00 37.5 0.00 27.2 68.8
12/06/2018 23:00 222.30 0.00 37.5 -- 25.8 69.0
12/06/2018 22:00 222.32 0.00 37.5 -- 25.7 69.8
12/06/2018 21:00 222.33 0.00 37.5 -- 26.9 70.0
12/06/2018 20:00 222.34 0.00 37.5 -- 25.9 70.3
12/06/2018 19:00 222.36 0.00 37.5 -- 26.3 71.0
12/06/2018 18:00 222.38 0.00 37.5 -- 27.4 71.0
12/06/2018 17:00 222.39 0.00 37.5 -- 29.6 71.5
12/06/2018 16:00 222.41 0.00 37.5 -- 32.8 72.0
12/06/2018 15:00 222.42 0.00 37.5 -- 34.8 72.5
12/06/2018 14:00 222.43 0.00 37.5 -- 36.5 72.8
12/06/2018 13:00 222.44 0.00 37.5 -- 37.1 73.3
12/06/2018 12:00 222.46 0.00 37.5 -- 34.4 73.5
12/06/2018 11:00 222.49 0.00 37.4 -- 34.2 74.0
12/06/2018 10:00 222.50 0.00 37.4 -- 32.3 74.5
12/06/2018 09:00 222.51 0.00 37.4 -- 26.7 75.0
12/06/2018 08:00 222.53 0.00 37.5 -- 21.5 75.3
12/06/2018 07:00 222.55 0.00 37.5 -- 20.9 76.0
12/06/2018 06:00 222.56 0.00 37.5 -- 23.4 76.0
12/06/2018 05:00 222.58 0.00 37.5 -- 25.4 77.0
12/06/2018 04:00 222.59 0.00 37.5 -- 25.9 77.0
12/06/2018 03:00 222.61 0.00 37.4 -- 25.6 78.0
12/06/2018 02:00 222.63 0.00 37.4 -- 24.6 78.0
12/06/2018 01:00 222.64 0.00 37.4 -- 23.4 78.5
12/06/2018 00:00 222.66 0.00 37.4 0.00 22.7 79.0
12/05/2018 23:00 222.68 0.00 37.4 -- 21.8 79.8
12/05/2018 22:00 222.69 0.00 37.4 -- 21.0 80.0
12/05/2018 21:00 222.71 0.00 37.3 -- 19.5 80.5
12/05/2018 20:00 222.73 0.00 37.3 -- 19.7 81.0
12/05/2018 19:00 222.74 0.00 37.3 -- 21.3 81.5
12/05/2018 18:00 222.76 0.00 37.3 -- 22.8 82.0
12/05/2018 17:00 222.78 0.00 37.5 -- 25.3 82.5
12/05/2018 16:00 222.80 0.00 37.3 -- 28.3 83.0
12/05/2018 15:00 222.81 0.00 37.6 -- 30.9 98.5
12/05/2018 14:00 222.83 0.00 37.6 -- 35.7 0.0
12/05/2018 13:00 222.83 0.00 37.3 -- 31.0 22.0
12/05/2018 12:00 222.82 0.00 37.4 -- 29.0 44.0
12/05/2018 11:00 222.82 0.00 37.4 -- 28.7 44.0
12/05/2018 10:00 222.80 0.00 37.5 -- 27.8 44.0
12/05/2018 09:00 222.80 0.00 37.1 -- 22.0 43.0
12/05/2018 08:00 222.80 0.00 37.2 -- 17.7 43.0
12/05/2018 07:00 222.79 0.00 37.3 -- 16.2 43.0
12/05/2018 06:00 222.79 0.00 37.2 -- 16.1 43.0
12/05/2018 05:00 222.78 0.00 37.1 -- 16.8 43.0
12/05/2018 04:00 222.78 0.00 37.2 -- 18.1 43.0
12/05/2018 03:00 222.77 0.00 37.2 -- 20.4 43.0
12/05/2018 02:00 222.77 0.00 37.2 -- 19.7 43.0
12/05/2018 01:00 222.76 0.00 37.2 -- 20.2 43.0
12/05/2018 00:00 222.75 0.00 36.8 0.00 20.6 42.5
12/04/2018 23:00 222.75 -- 36.9 -- 21.9 42.0
12/04/2018 22:00 222.74 0.00 37.0 -- 22.6 42.0
12/04/2018 21:00 222.74 0.00 37.1 -- 23.0 42.0
12/04/2018 20:00 222.73 0.00 37.2 -- 23.9 42.0
12/04/2018 19:00 222.73 0.00 37.2 -- 24.5 41.8
12/04/2018 18:00 222.74 0.00 37.2 -- 25.3 41.3
12/04/2018 17:00 222.70 0.00 37.2 -- 26.2 41.5
12/04/2018 16:00 222.71 0.00 37.2 -- 27.7 41.0
12/04/2018 15:00 222.70 0.00 37.3 -- 29.2 41.0
12/04/2018 14:00 222.70 0.00 37.3 -- 29.2 41.0
12/04/2018 13:00 222.68 0.00 37.2 -- 30.4 41.3
12/04/2018 12:00 222.67 0.00 37.1 -- 29.4 41.0
12/04/2018 11:00 222.65 0.00 37.2 -- 29.9 40.0
12/04/2018 10:00 222.66 0.00 37.0 -- 30.8 40.0
12/04/2018 09:00 222.65 0.00 37.2 -- 30.3 40.3
12/04/2018 08:00 222.63 0.00 37.3 -- 31.5 39.8
12/04/2018 07:00 222.64 0.00 37.4 -- 32.0 40.0
12/04/2018 06:00 222.64 0.00 37.4 -- 31.7 40.0
12/04/2018 05:00 222.63 0.00 37.5 -- 32.0 40.0
12/04/2018 04:00 222.65 0.00 37.5 -- 32.2 40.0
12/04/2018 03:00 222.65 0.00 37.5 -- 32.2 40.3
12/04/2018 02:00 222.64 0.00 37.6 -- 32.4 40.3
12/04/2018 01:00 222.65 0.00 37.7 -- 33.3 40.3
12/04/2018 00:00 222.66 0.00 37.8 -- 34.6 40.0
12/03/2018 23:00 222.66 0.00 37.8 -- 36.8 40.3
12/03/2018 22:00 222.67 0.00 37.8 -- 37.7 40.3
12/03/2018 21:00 222.66 0.00 37.9 -- 38.9 40.0
12/03/2018 20:00 222.66 0.00 37.9 -- 39.8 40.0
12/03/2018 19:00 222.66 0.00 37.9 -- 35.7 40.5
12/03/2018 18:00 222.66 0.00 37.9 -- 42.2 40.0
12/03/2018 17:00 222.67 0.00 37.9 -- 39.9 40.5
12/03/2018 16:00 222.66 0.00 37.8 -- 43.9 40.3
12/03/2018 15:00 222.67 0.00 37.9 -- 47.2 40.3
12/03/2018 14:00 222.66 0.00 38.0 -- 47.9 40.0
12/03/2018 13:00 222.65 0.00 37.9 -- 47.9 40.3
12/03/2018 12:00 222.66 0.00 37.6 -- 47.0 40.0
12/03/2018 11:00 222.65 0.00 37.8 -- 47.7 40.0
12/03/2018 10:00 222.65 0.00 37.5 -- 40.3 40.0
12/03/2018 09:00 222.64 0.00 37.8 -- 37.2 40.0
12/03/2018 08:00 222.66 0.00 37.6 -- 35.6 40.0
12/03/2018 07:00 222.65 0.00 37.6 -- 34.3 40.0
12/03/2018 06:00 222.63 0.00 37.8 -- 34.2 40.0
12/03/2018 05:00 222.65 0.00 38.1 -- 34.9 40.0
12/03/2018 04:00 222.64 0.00 38.2 -- 35.5 40.0
12/03/2018 03:00 222.64 0.00 37.8 -- 36.9 40.0
12/03/2018 02:00 222.64 0.00 37.9 -- 34.8 40.0
12/03/2018 01:00 222.64 0.00 37.8 -- 35.7 40.0
12/03/2018 00:00 222.64 0.00 37.7 0.00 35.6 40.0
12/02/2018 23:00 222.63 0.00 37.7 -- 37.0 40.0
12/02/2018 22:00 222.63 0.00 38.0 -- 36.0 39.8
12/02/2018 21:00 222.62 0.00 37.9 -- 36.9 39.5
12/02/2018 20:00 222.62 0.00 37.1 -- 36.3 39.0
12/02/2018 19:00 222.62 0.00 37.2 -- 37.7 39.0
12/02/2018 18:00 222.60 0.01 37.5 -- 38.0 39.0
12/02/2018 17:00 222.60 0.01 38.2 -- 38.9 39.0
12/02/2018 16:00 222.59 0.01 38.0 -- 41.0 39.0
12/02/2018 15:00 222.59 0.04 38.0 -- 41.5 39.0
12/02/2018 14:00 222.59 0.05 38.1 -- 42.8 38.8
12/02/2018 13:00 222.59 0.10 38.4 -- 42.9 38.5
12/02/2018 12:00 222.57 0.14 38.1 -- 41.8 38.0
12/02/2018 11:00 222.56 0.14 38.1 -- 37.5 38.0
12/02/2018 10:00 222.56 0.05 38.2 -- 36.2 38.0
12/02/2018 09:00 222.56 0.06 38.2 -- 34.1 38.0
12/02/2018 08:00 222.56 0.09 38.1 -- 33.6 38.0
12/02/2018 07:00 222.56 0.06 38.2 -- 32.8 38.0
12/02/2018 06:00 222.56 0.10 38.1 -- 32.3 38.0
12/02/2018 05:00 222.56 0.05 38.4 -- 32.2 38.0
12/02/2018 04:00 222.56 0.02 38.3 -- 32.1 38.0
12/02/2018 03:00 222.57 0.00 38.3 -- 32.6 38.0
12/02/2018 02:00 222.57 0.00 38.3 -- 31.9 38.0
12/02/2018 01:00 222.58 0.00 38.2 -- 31.4 39.0
12/02/2018 00:00 222.59 0.00 38.3 0.93 30.8 39.0
12/01/2018 23:00 222.60 0.00 38.0 -- 29.9 39.0
12/01/2018 22:00 222.60 0.00 38.0 -- 29.5 39.0
12/01/2018 21:00 222.61 0.00 38.1 -- 28.5 39.0
12/01/2018 20:00 222.62 0.00 38.1 -- 27.8 39.3
12/01/2018 19:00 222.63 0.00 37.8 -- 28.5 40.0
12/01/2018 18:00 222.63 0.00 37.7 -- 28.4 40.0
12/01/2018 17:00 222.64 0.00 37.7 -- 30.2 40.0
12/01/2018 16:00 222.65 0.00 37.9 -- 34.7 40.0
12/01/2018 15:00 222.66 0.00 38.1 -- 38.9 40.0
12/01/2018 14:00 222.66 0.00 38.1 -- 43.3 40.5
12/01/2018 13:00 222.68 0.01 38.2 -- 46.4 41.0
12/01/2018 12:00 222.68 0.01 38.2 -- 46.0 41.0
12/01/2018 11:00 222.69 0.01 38.1 -- 37.8 41.0
12/01/2018 10:00 222.69 0.00 38.2 -- 36.5 41.0
12/01/2018 09:00 222.71 0.00 38.2 -- 34.0 41.5
12/01/2018 08:00 222.71 0.00 38.1 -- 32.2 41.8
12/01/2018 07:00 222.72 0.00 38.1 -- 32.7 42.0
12/01/2018 06:00 222.73 0.00 37.9 -- 31.3 42.0
12/01/2018 05:00 222.74 0.00 38.0 -- 30.8 42.0
12/01/2018 04:00 222.75 0.00 37.9 -- 30.9 42.0
12/01/2018 03:00 222.75 0.00 37.9 -- 30.8 42.8
12/01/2018 02:00 222.76 0.00 38.2 -- 29.3 43.0
12/01/2018 01:00 222.77 0.00 37.9 -- 28.7 43.0
12/01/2018 00:00 222.78 0.00 37.8 0.03 29.6 43.0
11/30/2018 23:00 222.78 0.00 37.7 -- 31.3 43.0
11/30/2018 22:00 222.80 0.00 37.9 -- 32.3 44.0
11/30/2018 21:00 222.81 0.00 37.8 -- 31.8 44.0
11/30/2018 20:00 222.81 0.00 37.7 -- 30.9 44.0
11/30/2018 19:00 222.82 0.00 37.6 -- 30.4 44.0
11/30/2018 18:00 222.83 0.00 37.8 -- 30.5 44.0
11/30/2018 17:00 222.84 0.00 37.8 -- 33.5 45.0
11/30/2018 16:00 222.85 0.00 37.9 -- 35.0 45.0
11/30/2018 15:00 222.86 0.00 37.5 -- 35.8 45.0
11/30/2018 14:00 222.85 0.01 37.5 -- 37.2 45.0
11/30/2018 13:00 222.84 0.02 37.5 -- 38.6 44.0
11/30/2018 12:00 222.83 0.01 37.5 -- 42.0 44.0
11/30/2018 11:00 222.82 0.01 37.6 -- 40.3 44.0
11/30/2018 10:00 222.84 0.00 37.6 -- 40.2 44.8
11/30/2018 09:00 222.86 0.00 37.6 -- 29.6 45.0
11/30/2018 08:00 222.87 0.00 37.6 -- 26.3 45.0
11/30/2018 07:00 222.88 0.00 37.6 -- 25.8 45.5
11/30/2018 06:00 222.89 0.00 37.6 -- 26.8 46.0
11/30/2018 05:00 222.89 0.00 37.6 -- 28.3 46.0
11/30/2018 04:00 222.90 0.00 37.6 -- 30.0 46.0
11/30/2018 03:00 222.91 0.00 37.6 -- 31.3 46.0
11/30/2018 02:00 222.91 0.00 37.5 -- 30.9 46.5
11/30/2018 01:00 222.93 0.00 37.5 -- 31.0 47.0
11/30/2018 00:00 222.93 0.00 37.5 0.05 30.9 47.0
11/29/2018 23:00 222.94 0.00 37.5 -- 32.5 47.0
11/29/2018 22:00 222.97 0.00 37.5 -- 33.4 47.3
11/29/2018 21:00 222.96 0.00 37.5 -- 33.9 47.5
11/29/2018 20:00 222.98 0.00 37.5 -- 34.5 48.0
11/29/2018 19:00 222.97 0.00 37.6 -- 34.6 47.8
11/29/2018 18:00 222.97 0.00 37.6 -- 35.4 48.0
11/29/2018 17:00 223.01 0.00 37.6 -- 36.0 48.0
11/29/2018 16:00 222.99 0.01 37.6 -- 36.9 48.3
11/29/2018 15:00 223.03 0.02 37.6 -- 38.3 48.8
11/29/2018 14:00 223.03 0.02 37.6 -- 39.2 49.0
11/29/2018 13:00 223.04 0.02 37.6 -- 39.7 49.0
11/29/2018 12:00 223.04 0.01 37.6 -- 39.2 49.0
11/29/2018 11:00 223.06 0.01 37.6 -- 39.2 49.0
11/29/2018 10:00 223.08 0.01 37.5 -- 39.2 50.0
11/29/2018 09:00 223.06 0.00 37.5 -- 38.2 49.8
11/29/2018 08:00 223.05 0.00 37.5 -- 37.4 50.0
11/29/2018 07:00 223.10 0.00 37.5 -- 36.6 50.5
11/29/2018 06:00 223.09 0.00 37.6 -- 36.1 50.8
11/29/2018 05:00 223.09 0.00 37.7 -- 36.3 50.8
11/29/2018 04:00 223.11 0.00 37.7 -- 35.9 51.0
11/29/2018 03:00 223.06 0.00 37.7 -- 36.5 50.8
11/29/2018 02:00 223.12 0.01 37.7 -- 36.4 51.5
11/29/2018 01:00 223.11 0.00 37.7 -- 36.4 51.3
11/29/2018 00:00 223.13 0.01 37.8 0.11 36.2 52.0
11/28/2018 23:00 223.13 0.00 37.8 -- 36.4 52.0
11/28/2018 22:00 223.15 0.00 37.9 -- 36.1 52.0
11/28/2018 21:00 223.16 0.00 37.9 -- 35.7 52.3
11/28/2018 20:00 223.17 0.00 37.9 -- 36.0 52.3
11/28/2018 19:00 223.17 0.01 37.9 -- 36.0 52.3
11/28/2018 18:00 223.18 0.00 37.9 -- 35.9 53.0
11/28/2018 17:00 223.18 0.00 37.9 -- 36.5 53.0
11/28/2018 16:00 223.19 0.02 37.9 -- 37.3 53.0
11/28/2018 15:00 223.20 0.01 37.9 -- 37.7 53.0
11/28/2018 14:00 223.20 0.02 37.9 -- 37.9 53.0
11/28/2018 13:00 223.21 0.02 37.8 -- 38.4 53.3
11/28/2018 12:00 223.21 0.04 37.8 -- 37.9 53.0
11/28/2018 11:00 223.22 0.03 37.8 -- 38.5 54.0
11/28/2018 10:00 223.22 0.01 37.7 -- 36.1 54.0
11/28/2018 09:00 223.23 0.01 37.8 -- 36.7 54.0
11/28/2018 08:00 223.23 0.00 37.7 -- 33.7 54.0
11/28/2018 07:00 223.23 0.00 37.7 -- 32.0 54.0
11/28/2018 06:00 223.24 0.00 37.7 -- 31.6 54.0
11/28/2018 05:00 223.24 0.00 37.7 -- 30.9 54.0
11/28/2018 04:00 223.24 0.00 37.7 -- 30.8 54.0
11/28/2018 03:00 223.25 0.00 37.7 -- 30.1 54.5
11/28/2018 02:00 223.25 0.00 37.7 -- 29.9 54.8
11/28/2018 01:00 223.25 0.00 37.7 -- 31.3 55.0
11/28/2018 00:00 223.26 0.00 37.6 0.18 33.1 54.8
11/27/2018 23:00 223.25 0.01 37.6 -- 33.1 55.0
11/27/2018 22:00 223.26 0.00 37.6 -- 31.3 54.8
11/27/2018 21:00 223.26 0.01 37.6 -- 33.0 55.0
11/27/2018 20:00 223.25 0.01 37.5 -- 34.0 55.0
11/27/2018 19:00 223.25 0.02 37.5 -- 34.7 54.8
11/27/2018 18:00 223.25 0.04 37.5 -- 35.6 54.8
11/27/2018 17:00 223.25 0.06 37.4 -- 36.1 54.5
11/27/2018 16:00 223.24 0.06 37.4 -- 35.9 54.0
11/27/2018 15:00 223.24 0.07 37.3 -- 35.9 54.0
11/27/2018 14:00 223.22 0.12 37.2 -- 36.5 31.0
11/27/2018 13:00 223.23 0.09 37.2 -- 35.2 31.0
11/27/2018 12:00 223.21 0.09 37.2 -- 35.0 30.5
11/27/2018 11:00 223.20 0.10 37.1 -- 34.8 30.0
11/27/2018 10:00 223.21 0.02 37.1 -- 34.0 30.3
11/27/2018 09:00 223.20 0.00 37.1 -- 33.4 29.8
11/27/2018 08:00 223.17 0.01 37.2 -- 32.6 30.0
11/27/2018 07:00 223.16 0.00 37.4 -- 32.5 30.0
11/27/2018 06:00 223.14 0.00 37.5 -- 32.4 30.0
11/27/2018 05:00 223.11 0.00 37.6 -- 32.4 30.0
11/27/2018 04:00 223.09 0.00 37.7 -- 32.4 28.0
11/27/2018 03:00 223.08 0.00 37.8 -- 32.4 28.0
11/27/2018 02:00 223.06 0.00 37.7 -- 32.4 27.3
11/27/2018 01:00 223.05 0.06 37.7 -- 32.8 27.3
11/27/2018 00:00 223.04 0.09 37.9 0.77 35.3 27.0
11/26/2018 23:00 223.02 0.10 38.7 -- 35.2 26.3
11/26/2018 22:00 223.02 0.15 38.4 -- 34.3 26.8
11/26/2018 21:00 223.01 0.14 38.3 -- 37.0 26.3
11/26/2018 20:00 222.99 0.06 39.2 -- 36.6 26.0
11/26/2018 19:00 222.99 0.09 38.8 -- 35.6 26.0
11/26/2018 18:00 222.99 0.02 38.9 -- 36.0 26.0
11/26/2018 17:00 222.99 0.01 39.0 -- 36.4 26.0
11/26/2018 16:00 223.00 0.01 39.3 -- 36.3 26.0
11/26/2018 15:00 222.98 0.02 39.1 -- 35.9 26.0
11/26/2018 14:00 223.00 0.01 39.1 -- 35.9 26.0
11/26/2018 13:00 223.00 0.01 39.0 -- 36.1 26.0
11/26/2018 12:00 222.99 0.01 38.7 -- 35.5 26.0
11/26/2018 11:00 223.01 0.01 38.8 -- 35.0 26.3
11/26/2018 10:00 223.00 0.00 38.9 -- 34.0 26.3
11/26/2018 09:00 223.01 0.00 38.9 -- 33.8 27.0
11/26/2018 08:00 223.01 0.01 38.9 -- 33.7 27.0
11/26/2018 07:00 223.02 0.01 38.9 -- 33.7 27.0
11/26/2018 06:00 223.02 0.00 39.0 -- 34.1 27.0
11/26/2018 05:00 223.02 0.01 39.2 -- 34.1 27.0
11/26/2018 04:00 223.03 0.00 39.2 -- 34.1 27.0
11/26/2018 03:00 223.03 0.01 39.3 -- 33.9 27.0
11/26/2018 02:00 223.04 0.01 39.3 -- 33.9 27.0
11/26/2018 01:00 223.04 0.01 39.2 -- 34.2 27.0
11/26/2018 00:00 223.05 0.01 39.2 0.79 34.1 27.0
11/25/2018 23:00 223.05 0.02 39.3 -- 33.7 27.0
11/25/2018 22:00 223.05 0.01 39.3 -- 33.9 27.0
11/25/2018 21:00 223.05 0.01 39.4 -- 33.9 27.3
11/25/2018 20:00 223.06 0.01 39.4 -- 34.4 27.5
11/25/2018 19:00 223.06 0.00 39.3 -- 34.8 28.0
11/25/2018 18:00 223.07 0.01 39.2 -- 35.4 28.0
11/25/2018 17:00 223.07 0.02 39.0 -- 37.0 28.0
11/25/2018 16:00 223.08 0.03 39.0 -- 39.1 28.0
11/25/2018 15:00 223.08 0.04 39.1 -- 41.0 28.0
11/25/2018 14:00 223.09 0.05 39.0 -- 40.1 28.0
11/25/2018 13:00 223.10 0.04 39.0 -- 39.7 28.0
11/25/2018 12:00 223.10 0.06 39.0 -- 38.5 28.0
11/25/2018 11:00 223.11 0.07 39.2 -- 38.1 28.5
11/25/2018 10:00 223.11 0.06 39.3 -- 37.6 29.0
11/25/2018 09:00 223.11 0.06 39.0 -- 36.2 29.0
11/25/2018 08:00 223.12 0.06 39.0 -- 35.7 29.0
11/25/2018 07:00 223.12 0.03 39.1 -- 35.5 29.0
11/25/2018 06:00 223.13 0.03 38.9 -- 34.9 29.0
11/25/2018 05:00 223.13 0.05 38.9 -- 35.5 29.0
11/25/2018 04:00 -- -- -- -- 34.3 29.0
11/25/2018 03:00 -- -- -- -- 33.7 29.0
11/25/2018 02:00 -- -- -- -- 33.0 29.0
11/25/2018 01:00 -- -- -- -- 32.5 29.0
11/25/2018 00:00 -- -- -- 0.67 32.2 29.8